<?xml version="1.0" encoding="UTF-8" standalone="no" ?>
<gpx xmlns="http://www.topografix.com/GPX/1/1" xmlns:xsi="http://www.w3.org/2001/XMLSchema-instance" xsi:schemaLocation="http://www.topografix.com/GPX/1/1 http://www.topografix.com/GPX/1/1/gpx.xsd" version="1.1" creator="VisuGPX - https://www.visugpx.com">
  <metadata>
    <name>Ski Rando Sommet du Môle en Haute-Savoie</name>
    <desc><![CDATA[Randonnée à Ski du Môle depuis Bovère en passant par le petit Môle (voie normale)]]></desc>
  </metadata>
  <trk>
    <name><![CDATA[Rando Môle trace]]></name>
    <trkseg>
      <trkpt lat="46.09908" lon="6.43934">
        <ele>1165.26</ele>
        <time>2012-01-03T08:48:46Z</time>
      </trkpt>
      <trkpt lat="46.09905" lon="6.43948">
        <ele>1168.62</ele>
        <time>2012-01-03T08:49:00Z</time>
      </trkpt>
      <trkpt lat="46.09905" lon="6.43948">
        <ele>1165.26</ele>
        <time>2012-01-03T08:49:08Z</time>
      </trkpt>
      <trkpt lat="46.09905" lon="6.43948">
        <ele>1167.66</ele>
        <time>2012-01-03T08:49:10Z</time>
      </trkpt>
      <trkpt lat="46.09904" lon="6.4395">
        <ele>1166.7</ele>
        <time>2012-01-03T08:49:33Z</time>
      </trkpt>
      <trkpt lat="46.09903" lon="6.43951">
        <ele>1168.14</ele>
        <time>2012-01-03T08:49:35Z</time>
      </trkpt>
      <trkpt lat="46.09901" lon="6.43961">
        <ele>1169.58</ele>
        <time>2012-01-03T08:49:48Z</time>
      </trkpt>
      <trkpt lat="46.09901" lon="6.43968">
        <ele>1171.02</ele>
        <time>2012-01-03T08:50:03Z</time>
      </trkpt>
      <trkpt lat="46.09899" lon="6.4398">
        <ele>1174.39</ele>
        <time>2012-01-03T08:50:15Z</time>
      </trkpt>
      <trkpt lat="46.09899" lon="6.44001">
        <ele>1175.83</ele>
        <time>2012-01-03T08:50:28Z</time>
      </trkpt>
      <trkpt lat="46.09906" lon="6.43998">
        <ele>1175.83</ele>
        <time>2012-01-03T08:50:45Z</time>
      </trkpt>
      <trkpt lat="46.09912" lon="6.4399">
        <ele>1176.79</ele>
        <time>2012-01-03T08:50:59Z</time>
      </trkpt>
      <trkpt lat="46.09919" lon="6.43978">
        <ele>1177.75</ele>
        <time>2012-01-03T08:51:15Z</time>
      </trkpt>
      <trkpt lat="46.09928" lon="6.43969">
        <ele>1179.19</ele>
        <time>2012-01-03T08:51:30Z</time>
      </trkpt>
      <trkpt lat="46.09933" lon="6.43963">
        <ele>1182.08</ele>
        <time>2012-01-03T08:51:46Z</time>
      </trkpt>
      <trkpt lat="46.0994" lon="6.43955">
        <ele>1182.56</ele>
        <time>2012-01-03T08:51:55Z</time>
      </trkpt>
      <trkpt lat="46.09948" lon="6.43948">
        <ele>1184.48</ele>
        <time>2012-01-03T08:52:06Z</time>
      </trkpt>
      <trkpt lat="46.0995" lon="6.43946">
        <ele>1183.52</ele>
        <time>2012-01-03T08:52:08Z</time>
      </trkpt>
      <trkpt lat="46.09958" lon="6.43937">
        <ele>1184.48</ele>
        <time>2012-01-03T08:52:21Z</time>
      </trkpt>
      <trkpt lat="46.09959" lon="6.43937">
        <ele>1187.37</ele>
        <time>2012-01-03T08:52:22Z</time>
      </trkpt>
      <trkpt lat="46.09967" lon="6.43931">
        <ele>1187.85</ele>
        <time>2012-01-03T08:52:33Z</time>
      </trkpt>
      <trkpt lat="46.09977" lon="6.43927">
        <ele>1188.81</ele>
        <time>2012-01-03T08:52:42Z</time>
      </trkpt>
      <trkpt lat="46.09988" lon="6.4392">
        <ele>1189.29</ele>
        <time>2012-01-03T08:52:57Z</time>
      </trkpt>
      <trkpt lat="46.09999" lon="6.43915">
        <ele>1192.65</ele>
        <time>2012-01-03T08:53:12Z</time>
      </trkpt>
      <trkpt lat="46.10012" lon="6.43906">
        <ele>1194.58</ele>
        <time>2012-01-03T08:53:27Z</time>
      </trkpt>
      <trkpt lat="46.10015" lon="6.43907">
        <ele>1191.21</ele>
        <time>2012-01-03T08:53:36Z</time>
      </trkpt>
      <trkpt lat="46.10016" lon="6.43907">
        <ele>1196.02</ele>
        <time>2012-01-03T08:53:37Z</time>
      </trkpt>
      <trkpt lat="46.10016" lon="6.43907">
        <ele>1193.61</ele>
        <time>2012-01-03T08:53:59Z</time>
      </trkpt>
      <trkpt lat="46.10015" lon="6.43907">
        <ele>1193.61</ele>
        <time>2012-01-03T08:54:30Z</time>
      </trkpt>
      <trkpt lat="46.10014" lon="6.43907">
        <ele>1193.61</ele>
        <time>2012-01-03T08:55:04Z</time>
      </trkpt>
      <trkpt lat="46.10014" lon="6.43907">
        <ele>1193.61</ele>
        <time>2012-01-03T08:55:35Z</time>
      </trkpt>
      <trkpt lat="46.10024" lon="6.43906">
        <ele>1194.58</ele>
        <time>2012-01-03T08:55:48Z</time>
      </trkpt>
      <trkpt lat="46.10035" lon="6.43904">
        <ele>1195.06</ele>
        <time>2012-01-03T08:55:59Z</time>
      </trkpt>
      <trkpt lat="46.10044" lon="6.43904">
        <ele>1196.98</ele>
        <time>2012-01-03T08:56:12Z</time>
      </trkpt>
      <trkpt lat="46.10048" lon="6.43905">
        <ele>1198.9</ele>
        <time>2012-01-03T08:56:28Z</time>
      </trkpt>
      <trkpt lat="46.10062" lon="6.43904">
        <ele>1200.34</ele>
        <time>2012-01-03T08:56:42Z</time>
      </trkpt>
      <trkpt lat="46.10072" lon="6.43901">
        <ele>1201.79</ele>
        <time>2012-01-03T08:56:55Z</time>
      </trkpt>
      <trkpt lat="46.10079" lon="6.43905">
        <ele>1203.23</ele>
        <time>2012-01-03T08:57:04Z</time>
      </trkpt>
      <trkpt lat="46.10091" lon="6.43904">
        <ele>1204.67</ele>
        <time>2012-01-03T08:57:19Z</time>
      </trkpt>
      <trkpt lat="46.10103" lon="6.43906">
        <ele>1205.63</ele>
        <time>2012-01-03T08:57:32Z</time>
      </trkpt>
      <trkpt lat="46.10118" lon="6.4391">
        <ele>1208.03</ele>
        <time>2012-01-03T08:57:46Z</time>
      </trkpt>
      <trkpt lat="46.10129" lon="6.43911">
        <ele>1209</ele>
        <time>2012-01-03T08:58:00Z</time>
      </trkpt>
      <trkpt lat="46.10135" lon="6.43912">
        <ele>1212.84</ele>
        <time>2012-01-03T08:58:09Z</time>
      </trkpt>
      <trkpt lat="46.10144" lon="6.43917">
        <ele>1213.32</ele>
        <time>2012-01-03T08:58:23Z</time>
      </trkpt>
      <trkpt lat="46.10154" lon="6.43923">
        <ele>1215.24</ele>
        <time>2012-01-03T08:58:35Z</time>
      </trkpt>
      <trkpt lat="46.10163" lon="6.43927">
        <ele>1216.69</ele>
        <time>2012-01-03T08:58:48Z</time>
      </trkpt>
      <trkpt lat="46.10165" lon="6.43928">
        <ele>1216.69</ele>
        <time>2012-01-03T08:58:49Z</time>
      </trkpt>
      <trkpt lat="46.10172" lon="6.43931">
        <ele>1217.65</ele>
        <time>2012-01-03T08:58:58Z</time>
      </trkpt>
      <trkpt lat="46.1018" lon="6.43939">
        <ele>1220.05</ele>
        <time>2012-01-03T08:59:10Z</time>
      </trkpt>
      <trkpt lat="46.10183" lon="6.43941">
        <ele>1220.05</ele>
        <time>2012-01-03T08:59:14Z</time>
      </trkpt>
      <trkpt lat="46.10185" lon="6.43941">
        <ele>1221.01</ele>
        <time>2012-01-03T08:59:16Z</time>
      </trkpt>
      <trkpt lat="46.10196" lon="6.43949">
        <ele>1220.53</ele>
        <time>2012-01-03T08:59:28Z</time>
      </trkpt>
      <trkpt lat="46.10202" lon="6.43954">
        <ele>1223.42</ele>
        <time>2012-01-03T08:59:37Z</time>
      </trkpt>
      <trkpt lat="46.10203" lon="6.43955">
        <ele>1222.93</ele>
        <time>2012-01-03T08:59:38Z</time>
      </trkpt>
      <trkpt lat="46.10213" lon="6.43964">
        <ele>1225.34</ele>
        <time>2012-01-03T08:59:53Z</time>
      </trkpt>
      <trkpt lat="46.10213" lon="6.43965">
        <ele>1225.34</ele>
        <time>2012-01-03T08:59:54Z</time>
      </trkpt>
      <trkpt lat="46.10223" lon="6.4397">
        <ele>1227.74</ele>
        <time>2012-01-03T09:00:07Z</time>
      </trkpt>
      <trkpt lat="46.10225" lon="6.43972">
        <ele>1226.3</ele>
        <time>2012-01-03T09:00:11Z</time>
      </trkpt>
      <trkpt lat="46.10235" lon="6.43979">
        <ele>1229.66</ele>
        <time>2012-01-03T09:00:25Z</time>
      </trkpt>
      <trkpt lat="46.10245" lon="6.43987">
        <ele>1230.62</ele>
        <time>2012-01-03T09:00:38Z</time>
      </trkpt>
      <trkpt lat="46.10254" lon="6.4399">
        <ele>1232.07</ele>
        <time>2012-01-03T09:00:52Z</time>
      </trkpt>
      <trkpt lat="46.10255" lon="6.43991">
        <ele>1232.07</ele>
        <time>2012-01-03T09:00:53Z</time>
      </trkpt>
      <trkpt lat="46.10262" lon="6.43997">
        <ele>1231.59</ele>
        <time>2012-01-03T09:01:05Z</time>
      </trkpt>
      <trkpt lat="46.10271" lon="6.44006">
        <ele>1234.47</ele>
        <time>2012-01-03T09:01:19Z</time>
      </trkpt>
      <trkpt lat="46.10281" lon="6.44014">
        <ele>1233.99</ele>
        <time>2012-01-03T09:01:34Z</time>
      </trkpt>
      <trkpt lat="46.10289" lon="6.44019">
        <ele>1237.35</ele>
        <time>2012-01-03T09:01:43Z</time>
      </trkpt>
      <trkpt lat="46.10304" lon="6.44021">
        <ele>1239.28</ele>
        <time>2012-01-03T09:02:00Z</time>
      </trkpt>
      <trkpt lat="46.10319" lon="6.44022">
        <ele>1238.8</ele>
        <time>2012-01-03T09:02:17Z</time>
      </trkpt>
      <trkpt lat="46.10328" lon="6.44017">
        <ele>1241.2</ele>
        <time>2012-01-03T09:02:27Z</time>
      </trkpt>
      <trkpt lat="46.10342" lon="6.44011">
        <ele>1241.68</ele>
        <time>2012-01-03T09:02:40Z</time>
      </trkpt>
      <trkpt lat="46.10352" lon="6.44008">
        <ele>1245.53</ele>
        <time>2012-01-03T09:02:54Z</time>
      </trkpt>
      <trkpt lat="46.10356" lon="6.44011">
        <ele>1245.53</ele>
        <time>2012-01-03T09:03:00Z</time>
      </trkpt>
      <trkpt lat="46.10372" lon="6.44013">
        <ele>1246.01</ele>
        <time>2012-01-03T09:03:18Z</time>
      </trkpt>
      <trkpt lat="46.10374" lon="6.44016">
        <ele>1248.89</ele>
        <time>2012-01-03T09:03:24Z</time>
      </trkpt>
      <trkpt lat="46.10377" lon="6.44019">
        <ele>1247.45</ele>
        <time>2012-01-03T09:03:30Z</time>
      </trkpt>
      <trkpt lat="46.1038" lon="6.44026">
        <ele>1250.33</ele>
        <time>2012-01-03T09:03:43Z</time>
      </trkpt>
      <trkpt lat="46.10378" lon="6.44028">
        <ele>1248.89</ele>
        <time>2012-01-03T09:03:50Z</time>
      </trkpt>
      <trkpt lat="46.10367" lon="6.44027">
        <ele>1251.29</ele>
        <time>2012-01-03T09:04:02Z</time>
      </trkpt>
      <trkpt lat="46.10357" lon="6.44031">
        <ele>1253.22</ele>
        <time>2012-01-03T09:04:15Z</time>
      </trkpt>
      <trkpt lat="46.10355" lon="6.44034">
        <ele>1254.66</ele>
        <time>2012-01-03T09:04:20Z</time>
      </trkpt>
      <trkpt lat="46.10354" lon="6.44038">
        <ele>1254.18</ele>
        <time>2012-01-03T09:04:24Z</time>
      </trkpt>
      <trkpt lat="46.10351" lon="6.44047">
        <ele>1255.14</ele>
        <time>2012-01-03T09:04:32Z</time>
      </trkpt>
      <trkpt lat="46.1034" lon="6.44063">
        <ele>1255.62</ele>
        <time>2012-01-03T09:04:47Z</time>
      </trkpt>
      <trkpt lat="46.10339" lon="6.44064">
        <ele>1257.06</ele>
        <time>2012-01-03T09:04:49Z</time>
      </trkpt>
      <trkpt lat="46.10327" lon="6.4407">
        <ele>1259.94</ele>
        <time>2012-01-03T09:05:04Z</time>
      </trkpt>
      <trkpt lat="46.10322" lon="6.4407">
        <ele>1259.94</ele>
        <time>2012-01-03T09:05:10Z</time>
      </trkpt>
      <trkpt lat="46.10315" lon="6.44075">
        <ele>1261.39</ele>
        <time>2012-01-03T09:05:17Z</time>
      </trkpt>
      <trkpt lat="46.10314" lon="6.44076">
        <ele>1261.87</ele>
        <time>2012-01-03T09:05:18Z</time>
      </trkpt>
      <trkpt lat="46.10301" lon="6.44081">
        <ele>1264.75</ele>
        <time>2012-01-03T09:05:34Z</time>
      </trkpt>
      <trkpt lat="46.10296" lon="6.44083">
        <ele>1263.31</ele>
        <time>2012-01-03T09:05:41Z</time>
      </trkpt>
      <trkpt lat="46.10294" lon="6.44084">
        <ele>1264.75</ele>
        <time>2012-01-03T09:05:44Z</time>
      </trkpt>
      <trkpt lat="46.10282" lon="6.44085">
        <ele>1266.67</ele>
        <time>2012-01-03T09:05:59Z</time>
      </trkpt>
      <trkpt lat="46.10271" lon="6.44086">
        <ele>1267.16</ele>
        <time>2012-01-03T09:06:13Z</time>
      </trkpt>
      <trkpt lat="46.1027" lon="6.44086">
        <ele>1269.08</ele>
        <time>2012-01-03T09:06:14Z</time>
      </trkpt>
      <trkpt lat="46.10263" lon="6.44088">
        <ele>1270.04</ele>
        <time>2012-01-03T09:06:23Z</time>
      </trkpt>
      <trkpt lat="46.10256" lon="6.4409">
        <ele>1270.04</ele>
        <time>2012-01-03T09:06:31Z</time>
      </trkpt>
      <trkpt lat="46.10249" lon="6.44093">
        <ele>1271.48</ele>
        <time>2012-01-03T09:06:39Z</time>
      </trkpt>
      <trkpt lat="46.10239" lon="6.44092">
        <ele>1271.96</ele>
        <time>2012-01-03T09:06:52Z</time>
      </trkpt>
      <trkpt lat="46.10238" lon="6.44092">
        <ele>1273.88</ele>
        <time>2012-01-03T09:06:53Z</time>
      </trkpt>
      <trkpt lat="46.10227" lon="6.44094">
        <ele>1275.81</ele>
        <time>2012-01-03T09:07:05Z</time>
      </trkpt>
      <trkpt lat="46.10216" lon="6.44093">
        <ele>1276.29</ele>
        <time>2012-01-03T09:07:18Z</time>
      </trkpt>
      <trkpt lat="46.10211" lon="6.4409">
        <ele>1277.25</ele>
        <time>2012-01-03T09:07:25Z</time>
      </trkpt>
      <trkpt lat="46.10204" lon="6.44088">
        <ele>1278.69</ele>
        <time>2012-01-03T09:07:37Z</time>
      </trkpt>
      <trkpt lat="46.10193" lon="6.4408">
        <ele>1281.09</ele>
        <time>2012-01-03T09:07:50Z</time>
      </trkpt>
      <trkpt lat="46.10182" lon="6.44075">
        <ele>1282.06</ele>
        <time>2012-01-03T09:08:03Z</time>
      </trkpt>
      <trkpt lat="46.10177" lon="6.44073">
        <ele>1283.02</ele>
        <time>2012-01-03T09:08:10Z</time>
      </trkpt>
      <trkpt lat="46.1017" lon="6.44071">
        <ele>1283.5</ele>
        <time>2012-01-03T09:08:18Z</time>
      </trkpt>
      <trkpt lat="46.10166" lon="6.44071">
        <ele>1284.94</ele>
        <time>2012-01-03T09:08:23Z</time>
      </trkpt>
      <trkpt lat="46.10152" lon="6.44071">
        <ele>1286.86</ele>
        <time>2012-01-03T09:08:38Z</time>
      </trkpt>
      <trkpt lat="46.10141" lon="6.44071">
        <ele>1288.3</ele>
        <time>2012-01-03T09:08:51Z</time>
      </trkpt>
      <trkpt lat="46.10131" lon="6.44071">
        <ele>1291.19</ele>
        <time>2012-01-03T09:09:04Z</time>
      </trkpt>
      <trkpt lat="46.1013" lon="6.44072">
        <ele>1290.71</ele>
        <time>2012-01-03T09:09:05Z</time>
      </trkpt>
      <trkpt lat="46.10124" lon="6.44075">
        <ele>1291.67</ele>
        <time>2012-01-03T09:09:12Z</time>
      </trkpt>
      <trkpt lat="46.10116" lon="6.44081">
        <ele>1291.19</ele>
        <time>2012-01-03T09:09:24Z</time>
      </trkpt>
      <trkpt lat="46.10115" lon="6.44082">
        <ele>1295.99</ele>
        <time>2012-01-03T09:09:28Z</time>
      </trkpt>
      <trkpt lat="46.10115" lon="6.44083">
        <ele>1292.63</ele>
        <time>2012-01-03T09:09:29Z</time>
      </trkpt>
      <trkpt lat="46.10107" lon="6.44088">
        <ele>1294.55</ele>
        <time>2012-01-03T09:09:39Z</time>
      </trkpt>
      <trkpt lat="46.10098" lon="6.44096">
        <ele>1295.51</ele>
        <time>2012-01-03T09:09:52Z</time>
      </trkpt>
      <trkpt lat="46.10091" lon="6.44102">
        <ele>1299.36</ele>
        <time>2012-01-03T09:10:03Z</time>
      </trkpt>
      <trkpt lat="46.10089" lon="6.44105">
        <ele>1299.36</ele>
        <time>2012-01-03T09:10:07Z</time>
      </trkpt>
      <trkpt lat="46.10082" lon="6.44115">
        <ele>1300.8</ele>
        <time>2012-01-03T09:10:20Z</time>
      </trkpt>
      <trkpt lat="46.10082" lon="6.44115">
        <ele>1300.8</ele>
        <time>2012-01-03T09:10:42Z</time>
      </trkpt>
      <trkpt lat="46.10077" lon="6.4412">
        <ele>1301.28</ele>
        <time>2012-01-03T09:11:05Z</time>
      </trkpt>
      <trkpt lat="46.10073" lon="6.44128">
        <ele>1302.72</ele>
        <time>2012-01-03T09:11:18Z</time>
      </trkpt>
      <trkpt lat="46.10069" lon="6.4414">
        <ele>1304.17</ele>
        <time>2012-01-03T09:11:28Z</time>
      </trkpt>
      <trkpt lat="46.10065" lon="6.44151">
        <ele>1305.61</ele>
        <time>2012-01-03T09:11:42Z</time>
      </trkpt>
      <trkpt lat="46.10065" lon="6.44151">
        <ele>1304.65</ele>
        <time>2012-01-03T09:11:44Z</time>
      </trkpt>
      <trkpt lat="46.10063" lon="6.44155">
        <ele>1306.09</ele>
        <time>2012-01-03T09:12:09Z</time>
      </trkpt>
      <trkpt lat="46.10062" lon="6.44162">
        <ele>1306.09</ele>
        <time>2012-01-03T09:12:22Z</time>
      </trkpt>
      <trkpt lat="46.10062" lon="6.44167">
        <ele>1307.05</ele>
        <time>2012-01-03T09:12:26Z</time>
      </trkpt>
      <trkpt lat="46.1006" lon="6.4418">
        <ele>1308.01</ele>
        <time>2012-01-03T09:12:39Z</time>
      </trkpt>
      <trkpt lat="46.10059" lon="6.44182">
        <ele>1308.49</ele>
        <time>2012-01-03T09:13:01Z</time>
      </trkpt>
      <trkpt lat="46.10057" lon="6.44192">
        <ele>1309.45</ele>
        <time>2012-01-03T09:13:16Z</time>
      </trkpt>
      <trkpt lat="46.10057" lon="6.44197">
        <ele>1309.93</ele>
        <time>2012-01-03T09:13:32Z</time>
      </trkpt>
      <trkpt lat="46.10057" lon="6.44197">
        <ele>1309.93</ele>
        <time>2012-01-03T09:13:50Z</time>
      </trkpt>
      <trkpt lat="46.10057" lon="6.44197">
        <ele>1308.97</ele>
        <time>2012-01-03T09:14:06Z</time>
      </trkpt>
      <trkpt lat="46.10057" lon="6.44197">
        <ele>1310.9</ele>
        <time>2012-01-03T09:14:20Z</time>
      </trkpt>
      <trkpt lat="46.10057" lon="6.44197">
        <ele>1309.45</ele>
        <time>2012-01-03T09:14:22Z</time>
      </trkpt>
      <trkpt lat="46.10057" lon="6.44197">
        <ele>1310.41</ele>
        <time>2012-01-03T09:14:27Z</time>
      </trkpt>
      <trkpt lat="46.10057" lon="6.44197">
        <ele>1309.45</ele>
        <time>2012-01-03T09:14:30Z</time>
      </trkpt>
      <trkpt lat="46.10057" lon="6.44197">
        <ele>1311.38</ele>
        <time>2012-01-03T09:14:34Z</time>
      </trkpt>
      <trkpt lat="46.10057" lon="6.44197">
        <ele>1309.45</ele>
        <time>2012-01-03T09:14:36Z</time>
      </trkpt>
      <trkpt lat="46.10057" lon="6.44197">
        <ele>1310.9</ele>
        <time>2012-01-03T09:14:45Z</time>
      </trkpt>
      <trkpt lat="46.10058" lon="6.44196">
        <ele>1309.45</ele>
        <time>2012-01-03T09:14:50Z</time>
      </trkpt>
      <trkpt lat="46.10058" lon="6.44196">
        <ele>1308.97</ele>
        <time>2012-01-03T09:14:51Z</time>
      </trkpt>
      <trkpt lat="46.10057" lon="6.44195">
        <ele>1308.49</ele>
        <time>2012-01-03T09:15:05Z</time>
      </trkpt>
      <trkpt lat="46.10057" lon="6.44195">
        <ele>1308.49</ele>
        <time>2012-01-03T09:15:08Z</time>
      </trkpt>
      <trkpt lat="46.10057" lon="6.44198">
        <ele>1308.49</ele>
        <time>2012-01-03T09:15:19Z</time>
      </trkpt>
      <trkpt lat="46.10057" lon="6.44198">
        <ele>1308.49</ele>
        <time>2012-01-03T09:15:45Z</time>
      </trkpt>
      <trkpt lat="46.10057" lon="6.44197">
        <ele>1309.93</ele>
        <time>2012-01-03T09:16:00Z</time>
      </trkpt>
      <trkpt lat="46.10058" lon="6.44197">
        <ele>1304.65</ele>
        <time>2012-01-03T09:16:05Z</time>
      </trkpt>
      <trkpt lat="46.10058" lon="6.44196">
        <ele>1306.57</ele>
        <time>2012-01-03T09:16:06Z</time>
      </trkpt>
      <trkpt lat="46.10058" lon="6.44197">
        <ele>1303.2</ele>
        <time>2012-01-03T09:16:08Z</time>
      </trkpt>
      <trkpt lat="46.10058" lon="6.44196">
        <ele>1309.93</ele>
        <time>2012-01-03T09:16:09Z</time>
      </trkpt>
      <trkpt lat="46.10058" lon="6.44196">
        <ele>1308.01</ele>
        <time>2012-01-03T09:16:10Z</time>
      </trkpt>
      <trkpt lat="46.10058" lon="6.44196">
        <ele>1298.88</ele>
        <time>2012-01-03T09:16:15Z</time>
      </trkpt>
      <trkpt lat="46.10058" lon="6.44197">
        <ele>1314.26</ele>
        <time>2012-01-03T09:16:16Z</time>
      </trkpt>
      <trkpt lat="46.10058" lon="6.44196">
        <ele>1308.01</ele>
        <time>2012-01-03T09:16:17Z</time>
      </trkpt>
      <trkpt lat="46.10057" lon="6.44197">
        <ele>1292.63</ele>
        <time>2012-01-03T09:16:21Z</time>
      </trkpt>
      <trkpt lat="46.10058" lon="6.44197">
        <ele>1321.47</ele>
        <time>2012-01-03T09:16:22Z</time>
      </trkpt>
      <trkpt lat="46.10057" lon="6.44197">
        <ele>1308.49</ele>
        <time>2012-01-03T09:16:23Z</time>
      </trkpt>
      <trkpt lat="46.10057" lon="6.44197">
        <ele>1308.49</ele>
        <time>2012-01-03T09:16:42Z</time>
      </trkpt>
      <trkpt lat="46.10057" lon="6.44197">
        <ele>1308.49</ele>
        <time>2012-01-03T09:16:43Z</time>
      </trkpt>
      <trkpt lat="46.10058" lon="6.44196">
        <ele>1309.93</ele>
        <time>2012-01-03T09:16:48Z</time>
      </trkpt>
      <trkpt lat="46.10058" lon="6.44196">
        <ele>1310.41</ele>
        <time>2012-01-03T09:17:06Z</time>
      </trkpt>
      <trkpt lat="46.10057" lon="6.44196">
        <ele>1310.41</ele>
        <time>2012-01-03T09:17:26Z</time>
      </trkpt>
      <trkpt lat="46.10058" lon="6.44196">
        <ele>1310.41</ele>
        <time>2012-01-03T09:17:43Z</time>
      </trkpt>
      <trkpt lat="46.10057" lon="6.44196">
        <ele>1308.49</ele>
        <time>2012-01-03T09:17:55Z</time>
      </trkpt>
      <trkpt lat="46.10057" lon="6.44196">
        <ele>1309.45</ele>
        <time>2012-01-03T09:18:13Z</time>
      </trkpt>
      <trkpt lat="46.10057" lon="6.44196">
        <ele>1309.45</ele>
        <time>2012-01-03T09:18:31Z</time>
      </trkpt>
      <trkpt lat="46.10056" lon="6.442">
        <ele>1309.45</ele>
        <time>2012-01-03T09:18:36Z</time>
      </trkpt>
      <trkpt lat="46.10056" lon="6.44203">
        <ele>1309.45</ele>
        <time>2012-01-03T09:18:46Z</time>
      </trkpt>
      <trkpt lat="46.10056" lon="6.44206">
        <ele>1309.45</ele>
        <time>2012-01-03T09:18:50Z</time>
      </trkpt>
      <trkpt lat="46.10056" lon="6.4422">
        <ele>1311.38</ele>
        <time>2012-01-03T09:19:02Z</time>
      </trkpt>
      <trkpt lat="46.10057" lon="6.4423">
        <ele>1312.82</ele>
        <time>2012-01-03T09:19:13Z</time>
      </trkpt>
      <trkpt lat="46.10058" lon="6.44247">
        <ele>1313.78</ele>
        <time>2012-01-03T09:19:27Z</time>
      </trkpt>
      <trkpt lat="46.10056" lon="6.44262">
        <ele>1315.22</ele>
        <time>2012-01-03T09:19:40Z</time>
      </trkpt>
      <trkpt lat="46.10055" lon="6.44279">
        <ele>1317.14</ele>
        <time>2012-01-03T09:19:57Z</time>
      </trkpt>
      <trkpt lat="46.10054" lon="6.44293">
        <ele>1318.1</ele>
        <time>2012-01-03T09:20:11Z</time>
      </trkpt>
      <trkpt lat="46.10055" lon="6.44306">
        <ele>1320.99</ele>
        <time>2012-01-03T09:20:22Z</time>
      </trkpt>
      <trkpt lat="46.10056" lon="6.44309">
        <ele>1320.03</ele>
        <time>2012-01-03T09:20:25Z</time>
      </trkpt>
      <trkpt lat="46.10053" lon="6.44326">
        <ele>1322.43</ele>
        <time>2012-01-03T09:20:41Z</time>
      </trkpt>
      <trkpt lat="46.10053" lon="6.44331">
        <ele>1322.91</ele>
        <time>2012-01-03T09:20:45Z</time>
      </trkpt>
      <trkpt lat="46.10053" lon="6.44348">
        <ele>1324.35</ele>
        <time>2012-01-03T09:20:59Z</time>
      </trkpt>
      <trkpt lat="46.10055" lon="6.44364">
        <ele>1325.8</ele>
        <time>2012-01-03T09:21:13Z</time>
      </trkpt>
      <trkpt lat="46.10055" lon="6.44377">
        <ele>1327.72</ele>
        <time>2012-01-03T09:21:26Z</time>
      </trkpt>
      <trkpt lat="46.10054" lon="6.44392">
        <ele>1329.64</ele>
        <time>2012-01-03T09:21:38Z</time>
      </trkpt>
      <trkpt lat="46.10054" lon="6.44405">
        <ele>1330.6</ele>
        <time>2012-01-03T09:21:50Z</time>
      </trkpt>
      <trkpt lat="46.10053" lon="6.44417">
        <ele>1331.56</ele>
        <time>2012-01-03T09:22:01Z</time>
      </trkpt>
      <trkpt lat="46.10051" lon="6.44432">
        <ele>1333.01</ele>
        <time>2012-01-03T09:22:15Z</time>
      </trkpt>
      <trkpt lat="46.10051" lon="6.44443">
        <ele>1334.45</ele>
        <time>2012-01-03T09:22:24Z</time>
      </trkpt>
      <trkpt lat="46.10054" lon="6.4446">
        <ele>1335.89</ele>
        <time>2012-01-03T09:22:39Z</time>
      </trkpt>
      <trkpt lat="46.10057" lon="6.44479">
        <ele>1337.33</ele>
        <time>2012-01-03T09:22:53Z</time>
      </trkpt>
      <trkpt lat="46.10057" lon="6.44494">
        <ele>1339.25</ele>
        <time>2012-01-03T09:23:08Z</time>
      </trkpt>
      <trkpt lat="46.10059" lon="6.44509">
        <ele>1341.66</ele>
        <time>2012-01-03T09:23:21Z</time>
      </trkpt>
      <trkpt lat="46.10063" lon="6.44523">
        <ele>1343.1</ele>
        <time>2012-01-03T09:23:34Z</time>
      </trkpt>
      <trkpt lat="46.10065" lon="6.44537">
        <ele>1345.02</ele>
        <time>2012-01-03T09:23:48Z</time>
      </trkpt>
      <trkpt lat="46.10066" lon="6.4455">
        <ele>1345.98</ele>
        <time>2012-01-03T09:23:59Z</time>
      </trkpt>
      <trkpt lat="46.10068" lon="6.44566">
        <ele>1348.39</ele>
        <time>2012-01-03T09:24:14Z</time>
      </trkpt>
      <trkpt lat="46.10069" lon="6.44571">
        <ele>1348.87</ele>
        <time>2012-01-03T09:24:19Z</time>
      </trkpt>
      <trkpt lat="46.10071" lon="6.44576">
        <ele>1350.79</ele>
        <time>2012-01-03T09:24:24Z</time>
      </trkpt>
      <trkpt lat="46.10072" lon="6.44583">
        <ele>1349.83</ele>
        <time>2012-01-03T09:24:30Z</time>
      </trkpt>
      <trkpt lat="46.10072" lon="6.44588">
        <ele>1349.83</ele>
        <time>2012-01-03T09:24:35Z</time>
      </trkpt>
      <trkpt lat="46.10073" lon="6.44593">
        <ele>1351.27</ele>
        <time>2012-01-03T09:24:39Z</time>
      </trkpt>
      <trkpt lat="46.10073" lon="6.44594">
        <ele>1351.27</ele>
        <time>2012-01-03T09:24:53Z</time>
      </trkpt>
      <trkpt lat="46.10076" lon="6.44606">
        <ele>1352.71</ele>
        <time>2012-01-03T09:25:12Z</time>
      </trkpt>
      <trkpt lat="46.10077" lon="6.44621">
        <ele>1354.15</ele>
        <time>2012-01-03T09:25:23Z</time>
      </trkpt>
      <trkpt lat="46.10078" lon="6.44635">
        <ele>1355.6</ele>
        <time>2012-01-03T09:25:34Z</time>
      </trkpt>
      <trkpt lat="46.10078" lon="6.44644">
        <ele>1356.08</ele>
        <time>2012-01-03T09:25:41Z</time>
      </trkpt>
      <trkpt lat="46.10079" lon="6.4465">
        <ele>1357.52</ele>
        <time>2012-01-03T09:25:46Z</time>
      </trkpt>
      <trkpt lat="46.1008" lon="6.44654">
        <ele>1358</ele>
        <time>2012-01-03T09:25:51Z</time>
      </trkpt>
      <trkpt lat="46.10083" lon="6.44667">
        <ele>1358.96</ele>
        <time>2012-01-03T09:26:01Z</time>
      </trkpt>
      <trkpt lat="46.10085" lon="6.44682">
        <ele>1360.88</ele>
        <time>2012-01-03T09:26:14Z</time>
      </trkpt>
      <trkpt lat="46.10084" lon="6.44696">
        <ele>1363.77</ele>
        <time>2012-01-03T09:26:27Z</time>
      </trkpt>
      <trkpt lat="46.10085" lon="6.44699">
        <ele>1362.33</ele>
        <time>2012-01-03T09:26:29Z</time>
      </trkpt>
      <trkpt lat="46.10086" lon="6.44706">
        <ele>1363.77</ele>
        <time>2012-01-03T09:26:36Z</time>
      </trkpt>
      <trkpt lat="46.10088" lon="6.4472">
        <ele>1366.17</ele>
        <time>2012-01-03T09:26:50Z</time>
      </trkpt>
      <trkpt lat="46.10087" lon="6.44723">
        <ele>1366.65</ele>
        <time>2012-01-03T09:26:56Z</time>
      </trkpt>
      <trkpt lat="46.10084" lon="6.44734">
        <ele>1369.05</ele>
        <time>2012-01-03T09:27:08Z</time>
      </trkpt>
      <trkpt lat="46.10082" lon="6.44737">
        <ele>1370.02</ele>
        <time>2012-01-03T09:27:12Z</time>
      </trkpt>
      <trkpt lat="46.10075" lon="6.44747">
        <ele>1371.46</ele>
        <time>2012-01-03T09:27:27Z</time>
      </trkpt>
      <trkpt lat="46.10073" lon="6.44759">
        <ele>1373.38</ele>
        <time>2012-01-03T09:27:40Z</time>
      </trkpt>
      <trkpt lat="46.10072" lon="6.4476">
        <ele>1373.86</ele>
        <time>2012-01-03T09:27:41Z</time>
      </trkpt>
      <trkpt lat="46.10073" lon="6.44777">
        <ele>1375.78</ele>
        <time>2012-01-03T09:27:56Z</time>
      </trkpt>
      <trkpt lat="46.10073" lon="6.44792">
        <ele>1377.23</ele>
        <time>2012-01-03T09:28:09Z</time>
      </trkpt>
      <trkpt lat="46.10073" lon="6.44795">
        <ele>1377.71</ele>
        <time>2012-01-03T09:28:12Z</time>
      </trkpt>
      <trkpt lat="46.10073" lon="6.44803">
        <ele>1378.19</ele>
        <time>2012-01-03T09:28:19Z</time>
      </trkpt>
      <trkpt lat="46.10075" lon="6.4482">
        <ele>1380.11</ele>
        <time>2012-01-03T09:28:32Z</time>
      </trkpt>
      <trkpt lat="46.10075" lon="6.44834">
        <ele>1382.51</ele>
        <time>2012-01-03T09:28:46Z</time>
      </trkpt>
      <trkpt lat="46.10074" lon="6.44848">
        <ele>1384.44</ele>
        <time>2012-01-03T09:29:00Z</time>
      </trkpt>
      <trkpt lat="46.10076" lon="6.44863">
        <ele>1386.36</ele>
        <time>2012-01-03T09:29:14Z</time>
      </trkpt>
      <trkpt lat="46.10076" lon="6.44867">
        <ele>1386.84</ele>
        <time>2012-01-03T09:29:18Z</time>
      </trkpt>
      <trkpt lat="46.10076" lon="6.44879">
        <ele>1388.76</ele>
        <time>2012-01-03T09:29:30Z</time>
      </trkpt>
      <trkpt lat="46.10077" lon="6.44883">
        <ele>1389.24</ele>
        <time>2012-01-03T09:29:34Z</time>
      </trkpt>
      <trkpt lat="46.10078" lon="6.44889">
        <ele>1390.2</ele>
        <time>2012-01-03T09:29:40Z</time>
      </trkpt>
      <trkpt lat="46.10078" lon="6.44899">
        <ele>1391.17</ele>
        <time>2012-01-03T09:29:51Z</time>
      </trkpt>
      <trkpt lat="46.10078" lon="6.44908">
        <ele>1392.61</ele>
        <time>2012-01-03T09:30:02Z</time>
      </trkpt>
      <trkpt lat="46.10078" lon="6.44921">
        <ele>1393.57</ele>
        <time>2012-01-03T09:30:14Z</time>
      </trkpt>
      <trkpt lat="46.10079" lon="6.44934">
        <ele>1397.89</ele>
        <time>2012-01-03T09:30:28Z</time>
      </trkpt>
      <trkpt lat="46.10079" lon="6.44934">
        <ele>1397.89</ele>
        <time>2012-01-03T09:30:29Z</time>
      </trkpt>
      <trkpt lat="46.10078" lon="6.44948">
        <ele>1398.37</ele>
        <time>2012-01-03T09:30:44Z</time>
      </trkpt>
      <trkpt lat="46.10082" lon="6.44963">
        <ele>1400.3</ele>
        <time>2012-01-03T09:30:57Z</time>
      </trkpt>
      <trkpt lat="46.10084" lon="6.44976">
        <ele>1401.74</ele>
        <time>2012-01-03T09:31:10Z</time>
      </trkpt>
      <trkpt lat="46.10084" lon="6.44978">
        <ele>1402.22</ele>
        <time>2012-01-03T09:31:12Z</time>
      </trkpt>
      <trkpt lat="46.10083" lon="6.44982">
        <ele>1402.22</ele>
        <time>2012-01-03T09:31:17Z</time>
      </trkpt>
      <trkpt lat="46.10082" lon="6.44985">
        <ele>1402.22</ele>
        <time>2012-01-03T09:31:20Z</time>
      </trkpt>
      <trkpt lat="46.10079" lon="6.44991">
        <ele>1402.22</ele>
        <time>2012-01-03T09:31:27Z</time>
      </trkpt>
      <trkpt lat="46.10071" lon="6.44989">
        <ele>1403.66</ele>
        <time>2012-01-03T09:31:39Z</time>
      </trkpt>
      <trkpt lat="46.10063" lon="6.44988">
        <ele>1404.62</ele>
        <time>2012-01-03T09:31:49Z</time>
      </trkpt>
      <trkpt lat="46.10054" lon="6.44989">
        <ele>1406.55</ele>
        <time>2012-01-03T09:32:01Z</time>
      </trkpt>
      <trkpt lat="46.10047" lon="6.44992">
        <ele>1407.99</ele>
        <time>2012-01-03T09:32:13Z</time>
      </trkpt>
      <trkpt lat="46.10039" lon="6.44991">
        <ele>1409.43</ele>
        <time>2012-01-03T09:32:25Z</time>
      </trkpt>
      <trkpt lat="46.10037" lon="6.44991">
        <ele>1411.83</ele>
        <time>2012-01-03T09:32:29Z</time>
      </trkpt>
      <trkpt lat="46.10027" lon="6.4499">
        <ele>1411.83</ele>
        <time>2012-01-03T09:32:42Z</time>
      </trkpt>
      <trkpt lat="46.10018" lon="6.44984">
        <ele>1412.79</ele>
        <time>2012-01-03T09:32:53Z</time>
      </trkpt>
      <trkpt lat="46.10009" lon="6.44981">
        <ele>1413.76</ele>
        <time>2012-01-03T09:33:07Z</time>
      </trkpt>
      <trkpt lat="46.09994" lon="6.44976">
        <ele>1415.2</ele>
        <time>2012-01-03T09:33:20Z</time>
      </trkpt>
      <trkpt lat="46.09985" lon="6.44976">
        <ele>1416.64</ele>
        <time>2012-01-03T09:33:33Z</time>
      </trkpt>
      <trkpt lat="46.0998" lon="6.44972">
        <ele>1418.08</ele>
        <time>2012-01-03T09:33:45Z</time>
      </trkpt>
      <trkpt lat="46.09969" lon="6.44969">
        <ele>1420</ele>
        <time>2012-01-03T09:33:56Z</time>
      </trkpt>
      <trkpt lat="46.09965" lon="6.4497">
        <ele>1420.97</ele>
        <time>2012-01-03T09:34:04Z</time>
      </trkpt>
      <trkpt lat="46.09962" lon="6.44978">
        <ele>1422.41</ele>
        <time>2012-01-03T09:34:12Z</time>
      </trkpt>
      <trkpt lat="46.09966" lon="6.44991">
        <ele>1424.81</ele>
        <time>2012-01-03T09:34:26Z</time>
      </trkpt>
      <trkpt lat="46.09969" lon="6.44995">
        <ele>1426.73</ele>
        <time>2012-01-03T09:34:31Z</time>
      </trkpt>
      <trkpt lat="46.09977" lon="6.45001">
        <ele>1426.73</ele>
        <time>2012-01-03T09:34:44Z</time>
      </trkpt>
      <trkpt lat="46.09977" lon="6.45002">
        <ele>1427.21</ele>
        <time>2012-01-03T09:34:47Z</time>
      </trkpt>
      <trkpt lat="46.09984" lon="6.4501">
        <ele>1429.14</ele>
        <time>2012-01-03T09:35:00Z</time>
      </trkpt>
      <trkpt lat="46.09986" lon="6.45012">
        <ele>1429.62</ele>
        <time>2012-01-03T09:35:04Z</time>
      </trkpt>
      <trkpt lat="46.09995" lon="6.45021">
        <ele>1431.54</ele>
        <time>2012-01-03T09:35:20Z</time>
      </trkpt>
      <trkpt lat="46.10001" lon="6.45028">
        <ele>1433.94</ele>
        <time>2012-01-03T09:35:35Z</time>
      </trkpt>
      <trkpt lat="46.10004" lon="6.45033">
        <ele>1434.91</ele>
        <time>2012-01-03T09:35:42Z</time>
      </trkpt>
      <trkpt lat="46.10007" lon="6.4504">
        <ele>1436.35</ele>
        <time>2012-01-03T09:35:50Z</time>
      </trkpt>
      <trkpt lat="46.10014" lon="6.45053">
        <ele>1439.23</ele>
        <time>2012-01-03T09:36:04Z</time>
      </trkpt>
      <trkpt lat="46.10014" lon="6.45054">
        <ele>1439.23</ele>
        <time>2012-01-03T09:36:05Z</time>
      </trkpt>
      <trkpt lat="46.10019" lon="6.45065">
        <ele>1441.63</ele>
        <time>2012-01-03T09:36:19Z</time>
      </trkpt>
      <trkpt lat="46.10027" lon="6.45073">
        <ele>1445.96</ele>
        <time>2012-01-03T09:36:32Z</time>
      </trkpt>
      <trkpt lat="46.10034" lon="6.45084">
        <ele>1446.92</ele>
        <time>2012-01-03T09:36:46Z</time>
      </trkpt>
      <trkpt lat="46.10038" lon="6.45093">
        <ele>1448.84</ele>
        <time>2012-01-03T09:36:58Z</time>
      </trkpt>
      <trkpt lat="46.10043" lon="6.45102">
        <ele>1450.77</ele>
        <time>2012-01-03T09:37:10Z</time>
      </trkpt>
      <trkpt lat="46.10049" lon="6.4511">
        <ele>1452.69</ele>
        <time>2012-01-03T09:37:21Z</time>
      </trkpt>
      <trkpt lat="46.10056" lon="6.4512">
        <ele>1455.57</ele>
        <time>2012-01-03T09:37:38Z</time>
      </trkpt>
      <trkpt lat="46.10057" lon="6.45121">
        <ele>1456.05</ele>
        <time>2012-01-03T09:37:40Z</time>
      </trkpt>
      <trkpt lat="46.10064" lon="6.45132">
        <ele>1457.98</ele>
        <time>2012-01-03T09:37:54Z</time>
      </trkpt>
      <trkpt lat="46.10066" lon="6.45136">
        <ele>1458.94</ele>
        <time>2012-01-03T09:37:59Z</time>
      </trkpt>
      <trkpt lat="46.10071" lon="6.45146">
        <ele>1460.86</ele>
        <time>2012-01-03T09:38:11Z</time>
      </trkpt>
      <trkpt lat="46.10074" lon="6.4515">
        <ele>1461.82</ele>
        <time>2012-01-03T09:38:16Z</time>
      </trkpt>
      <trkpt lat="46.10081" lon="6.45164">
        <ele>1463.74</ele>
        <time>2012-01-03T09:38:30Z</time>
      </trkpt>
      <trkpt lat="46.10082" lon="6.45166">
        <ele>1465.67</ele>
        <time>2012-01-03T09:38:34Z</time>
      </trkpt>
      <trkpt lat="46.10088" lon="6.45177">
        <ele>1466.63</ele>
        <time>2012-01-03T09:38:47Z</time>
      </trkpt>
      <trkpt lat="46.1009" lon="6.4518">
        <ele>1467.11</ele>
        <time>2012-01-03T09:38:52Z</time>
      </trkpt>
      <trkpt lat="46.10093" lon="6.45191">
        <ele>1469.51</ele>
        <time>2012-01-03T09:39:04Z</time>
      </trkpt>
      <trkpt lat="46.10092" lon="6.45193">
        <ele>1469.99</ele>
        <time>2012-01-03T09:39:06Z</time>
      </trkpt>
      <trkpt lat="46.10089" lon="6.45195">
        <ele>1471.44</ele>
        <time>2012-01-03T09:39:11Z</time>
      </trkpt>
      <trkpt lat="46.10086" lon="6.45193">
        <ele>1471.92</ele>
        <time>2012-01-03T09:39:15Z</time>
      </trkpt>
      <trkpt lat="46.10081" lon="6.45191">
        <ele>1472.88</ele>
        <time>2012-01-03T09:39:22Z</time>
      </trkpt>
      <trkpt lat="46.10073" lon="6.45189">
        <ele>1474.8</ele>
        <time>2012-01-03T09:39:37Z</time>
      </trkpt>
      <trkpt lat="46.10067" lon="6.45187">
        <ele>1476.24</ele>
        <time>2012-01-03T09:39:49Z</time>
      </trkpt>
      <trkpt lat="46.10059" lon="6.45183">
        <ele>1477.2</ele>
        <time>2012-01-03T09:40:01Z</time>
      </trkpt>
      <trkpt lat="46.10055" lon="6.45181">
        <ele>1478.16</ele>
        <time>2012-01-03T09:40:08Z</time>
      </trkpt>
      <trkpt lat="46.10044" lon="6.45179">
        <ele>1479.61</ele>
        <time>2012-01-03T09:40:22Z</time>
      </trkpt>
      <trkpt lat="46.10034" lon="6.45175">
        <ele>1482.49</ele>
        <time>2012-01-03T09:40:35Z</time>
      </trkpt>
      <trkpt lat="46.10026" lon="6.45172">
        <ele>1482.49</ele>
        <time>2012-01-03T09:40:47Z</time>
      </trkpt>
      <trkpt lat="46.10015" lon="6.45166">
        <ele>1485.37</ele>
        <time>2012-01-03T09:41:01Z</time>
      </trkpt>
      <trkpt lat="46.10005" lon="6.45161">
        <ele>1487.78</ele>
        <time>2012-01-03T09:41:15Z</time>
      </trkpt>
      <trkpt lat="46.10001" lon="6.45159">
        <ele>1488.74</ele>
        <time>2012-01-03T09:41:21Z</time>
      </trkpt>
      <trkpt lat="46.09994" lon="6.45155">
        <ele>1490.66</ele>
        <time>2012-01-03T09:41:34Z</time>
      </trkpt>
      <trkpt lat="46.09993" lon="6.45155">
        <ele>1491.14</ele>
        <time>2012-01-03T09:41:36Z</time>
      </trkpt>
      <trkpt lat="46.09989" lon="6.45155">
        <ele>1491.62</ele>
        <time>2012-01-03T09:41:41Z</time>
      </trkpt>
      <trkpt lat="46.09975" lon="6.45154">
        <ele>1494.03</ele>
        <time>2012-01-03T09:41:56Z</time>
      </trkpt>
      <trkpt lat="46.09965" lon="6.45154">
        <ele>1495.47</ele>
        <time>2012-01-03T09:42:08Z</time>
      </trkpt>
      <trkpt lat="46.09955" lon="6.45153">
        <ele>1497.87</ele>
        <time>2012-01-03T09:42:21Z</time>
      </trkpt>
      <trkpt lat="46.09946" lon="6.45151">
        <ele>1499.79</ele>
        <time>2012-01-03T09:42:34Z</time>
      </trkpt>
      <trkpt lat="46.09945" lon="6.45151">
        <ele>1501.72</ele>
        <time>2012-01-03T09:42:36Z</time>
      </trkpt>
      <trkpt lat="46.09936" lon="6.45151">
        <ele>1502.2</ele>
        <time>2012-01-03T09:42:49Z</time>
      </trkpt>
      <trkpt lat="46.09926" lon="6.45153">
        <ele>1504.12</ele>
        <time>2012-01-03T09:43:02Z</time>
      </trkpt>
      <trkpt lat="46.09915" lon="6.45152">
        <ele>1506.04</ele>
        <time>2012-01-03T09:43:15Z</time>
      </trkpt>
      <trkpt lat="46.09906" lon="6.4515">
        <ele>1507.97</ele>
        <time>2012-01-03T09:43:28Z</time>
      </trkpt>
      <trkpt lat="46.09895" lon="6.45145">
        <ele>1509.41</ele>
        <time>2012-01-03T09:43:41Z</time>
      </trkpt>
      <trkpt lat="46.09885" lon="6.45143">
        <ele>1511.81</ele>
        <time>2012-01-03T09:43:54Z</time>
      </trkpt>
      <trkpt lat="46.09877" lon="6.45148">
        <ele>1513.25</ele>
        <time>2012-01-03T09:44:05Z</time>
      </trkpt>
      <trkpt lat="46.09874" lon="6.45151">
        <ele>1514.21</ele>
        <time>2012-01-03T09:44:09Z</time>
      </trkpt>
      <trkpt lat="46.09874" lon="6.45165">
        <ele>1515.66</ele>
        <time>2012-01-03T09:44:19Z</time>
      </trkpt>
      <trkpt lat="46.0988" lon="6.45178">
        <ele>1517.58</ele>
        <time>2012-01-03T09:44:33Z</time>
      </trkpt>
      <trkpt lat="46.09882" lon="6.45181">
        <ele>1519.5</ele>
        <time>2012-01-03T09:44:37Z</time>
      </trkpt>
      <trkpt lat="46.0989" lon="6.4519">
        <ele>1519.5</ele>
        <time>2012-01-03T09:44:52Z</time>
      </trkpt>
      <trkpt lat="46.09897" lon="6.45195">
        <ele>1521.42</ele>
        <time>2012-01-03T09:45:04Z</time>
      </trkpt>
      <trkpt lat="46.09901" lon="6.45201">
        <ele>1522.87</ele>
        <time>2012-01-03T09:45:16Z</time>
      </trkpt>
      <trkpt lat="46.09901" lon="6.45201">
        <ele>1522.87</ele>
        <time>2012-01-03T09:45:39Z</time>
      </trkpt>
      <trkpt lat="46.09901" lon="6.452">
        <ele>1522.87</ele>
        <time>2012-01-03T09:45:53Z</time>
      </trkpt>
      <trkpt lat="46.09901" lon="6.452">
        <ele>1523.35</ele>
        <time>2012-01-03T09:46:09Z</time>
      </trkpt>
      <trkpt lat="46.099" lon="6.45201">
        <ele>1523.35</ele>
        <time>2012-01-03T09:46:28Z</time>
      </trkpt>
      <trkpt lat="46.09902" lon="6.45203">
        <ele>1522.87</ele>
        <time>2012-01-03T09:46:54Z</time>
      </trkpt>
      <trkpt lat="46.09903" lon="6.45203">
        <ele>1522.87</ele>
        <time>2012-01-03T09:46:55Z</time>
      </trkpt>
      <trkpt lat="46.09916" lon="6.45211">
        <ele>1522.87</ele>
        <time>2012-01-03T09:47:10Z</time>
      </trkpt>
      <trkpt lat="46.0992" lon="6.45215">
        <ele>1523.83</ele>
        <time>2012-01-03T09:47:15Z</time>
      </trkpt>
      <trkpt lat="46.09922" lon="6.45217">
        <ele>1523.83</ele>
        <time>2012-01-03T09:47:18Z</time>
      </trkpt>
      <trkpt lat="46.09934" lon="6.45226">
        <ele>1524.79</ele>
        <time>2012-01-03T09:47:33Z</time>
      </trkpt>
      <trkpt lat="46.09944" lon="6.45235">
        <ele>1526.23</ele>
        <time>2012-01-03T09:47:46Z</time>
      </trkpt>
      <trkpt lat="46.09953" lon="6.45244">
        <ele>1528.15</ele>
        <time>2012-01-03T09:48:00Z</time>
      </trkpt>
      <trkpt lat="46.09963" lon="6.4525">
        <ele>1529.59</ele>
        <time>2012-01-03T09:48:13Z</time>
      </trkpt>
      <trkpt lat="46.09973" lon="6.45257">
        <ele>1531.52</ele>
        <time>2012-01-03T09:48:29Z</time>
      </trkpt>
      <trkpt lat="46.09984" lon="6.45264">
        <ele>1532</ele>
        <time>2012-01-03T09:48:42Z</time>
      </trkpt>
      <trkpt lat="46.09986" lon="6.45266">
        <ele>1531.52</ele>
        <time>2012-01-03T09:48:44Z</time>
      </trkpt>
      <trkpt lat="46.1" lon="6.45279">
        <ele>1528.63</ele>
        <time>2012-01-03T09:48:59Z</time>
      </trkpt>
      <trkpt lat="46.10007" lon="6.45284">
        <ele>1528.15</ele>
        <time>2012-01-03T09:49:11Z</time>
      </trkpt>
      <trkpt lat="46.10007" lon="6.45284">
        <ele>1528.15</ele>
        <time>2012-01-03T09:49:46Z</time>
      </trkpt>
      <trkpt lat="46.1001" lon="6.4529">
        <ele>1528.15</ele>
        <time>2012-01-03T09:50:02Z</time>
      </trkpt>
      <trkpt lat="46.1001" lon="6.45293">
        <ele>1528.15</ele>
        <time>2012-01-03T09:50:27Z</time>
      </trkpt>
      <trkpt lat="46.10011" lon="6.45294">
        <ele>1529.59</ele>
        <time>2012-01-03T09:50:29Z</time>
      </trkpt>
      <trkpt lat="46.10011" lon="6.45299">
        <ele>1529.59</ele>
        <time>2012-01-03T09:50:34Z</time>
      </trkpt>
      <trkpt lat="46.10014" lon="6.45308">
        <ele>1530.08</ele>
        <time>2012-01-03T09:50:43Z</time>
      </trkpt>
      <trkpt lat="46.10018" lon="6.45317">
        <ele>1529.11</ele>
        <time>2012-01-03T09:50:50Z</time>
      </trkpt>
      <trkpt lat="46.10023" lon="6.45331">
        <ele>1529.11</ele>
        <time>2012-01-03T09:51:03Z</time>
      </trkpt>
      <trkpt lat="46.10027" lon="6.45339">
        <ele>1529.11</ele>
        <time>2012-01-03T09:51:15Z</time>
      </trkpt>
      <trkpt lat="46.10029" lon="6.45344">
        <ele>1529.11</ele>
        <time>2012-01-03T09:51:28Z</time>
      </trkpt>
      <trkpt lat="46.10029" lon="6.45345">
        <ele>1530.08</ele>
        <time>2012-01-03T09:51:33Z</time>
      </trkpt>
      <trkpt lat="46.10032" lon="6.45356">
        <ele>1530.56</ele>
        <time>2012-01-03T09:51:46Z</time>
      </trkpt>
      <trkpt lat="46.10032" lon="6.45357">
        <ele>1530.56</ele>
        <time>2012-01-03T09:51:47Z</time>
      </trkpt>
      <trkpt lat="46.10035" lon="6.45361">
        <ele>1531.04</ele>
        <time>2012-01-03T09:51:51Z</time>
      </trkpt>
      <trkpt lat="46.10042" lon="6.45375">
        <ele>1532</ele>
        <time>2012-01-03T09:52:00Z</time>
      </trkpt>
      <trkpt lat="46.10049" lon="6.4539">
        <ele>1533.92</ele>
        <time>2012-01-03T09:52:15Z</time>
      </trkpt>
      <trkpt lat="46.10058" lon="6.45408">
        <ele>1535.84</ele>
        <time>2012-01-03T09:52:31Z</time>
      </trkpt>
      <trkpt lat="46.10062" lon="6.45418">
        <ele>1539.21</ele>
        <time>2012-01-03T09:52:41Z</time>
      </trkpt>
      <trkpt lat="46.10063" lon="6.4542">
        <ele>1539.21</ele>
        <time>2012-01-03T09:52:42Z</time>
      </trkpt>
      <trkpt lat="46.10067" lon="6.45433">
        <ele>1539.69</ele>
        <time>2012-01-03T09:52:56Z</time>
      </trkpt>
      <trkpt lat="46.10073" lon="6.45445">
        <ele>1542.09</ele>
        <time>2012-01-03T09:53:11Z</time>
      </trkpt>
      <trkpt lat="46.10078" lon="6.45452">
        <ele>1544.5</ele>
        <time>2012-01-03T09:53:26Z</time>
      </trkpt>
      <trkpt lat="46.10085" lon="6.45454">
        <ele>1546.9</ele>
        <time>2012-01-03T09:53:41Z</time>
      </trkpt>
      <trkpt lat="46.10091" lon="6.45456">
        <ele>1550.26</ele>
        <time>2012-01-03T09:53:56Z</time>
      </trkpt>
      <trkpt lat="46.10099" lon="6.45459">
        <ele>1551.71</ele>
        <time>2012-01-03T09:54:08Z</time>
      </trkpt>
      <trkpt lat="46.10108" lon="6.4546">
        <ele>1553.15</ele>
        <time>2012-01-03T09:54:23Z</time>
      </trkpt>
      <trkpt lat="46.10118" lon="6.45462">
        <ele>1554.59</ele>
        <time>2012-01-03T09:54:40Z</time>
      </trkpt>
      <trkpt lat="46.10125" lon="6.4546">
        <ele>1556.51</ele>
        <time>2012-01-03T09:54:56Z</time>
      </trkpt>
      <trkpt lat="46.10135" lon="6.45454">
        <ele>1558.92</ele>
        <time>2012-01-03T09:55:11Z</time>
      </trkpt>
      <trkpt lat="46.1014" lon="6.45453">
        <ele>1561.32</ele>
        <time>2012-01-03T09:55:27Z</time>
      </trkpt>
      <trkpt lat="46.10149" lon="6.45444">
        <ele>1563.24</ele>
        <time>2012-01-03T09:55:43Z</time>
      </trkpt>
      <trkpt lat="46.10155" lon="6.4544">
        <ele>1565.16</ele>
        <time>2012-01-03T09:55:55Z</time>
      </trkpt>
      <trkpt lat="46.10161" lon="6.45437">
        <ele>1567.09</ele>
        <time>2012-01-03T09:56:08Z</time>
      </trkpt>
      <trkpt lat="46.10168" lon="6.45435">
        <ele>1569.01</ele>
        <time>2012-01-03T09:56:22Z</time>
      </trkpt>
      <trkpt lat="46.10173" lon="6.45433">
        <ele>1571.41</ele>
        <time>2012-01-03T09:56:37Z</time>
      </trkpt>
      <trkpt lat="46.10176" lon="6.45431">
        <ele>1573.82</ele>
        <time>2012-01-03T09:56:44Z</time>
      </trkpt>
      <trkpt lat="46.10182" lon="6.45429">
        <ele>1574.78</ele>
        <time>2012-01-03T09:56:58Z</time>
      </trkpt>
      <trkpt lat="46.10186" lon="6.45427">
        <ele>1576.22</ele>
        <time>2012-01-03T09:57:11Z</time>
      </trkpt>
      <trkpt lat="46.10193" lon="6.45424">
        <ele>1577.66</ele>
        <time>2012-01-03T09:57:23Z</time>
      </trkpt>
      <trkpt lat="46.10194" lon="6.45425">
        <ele>1578.62</ele>
        <time>2012-01-03T09:57:32Z</time>
      </trkpt>
      <trkpt lat="46.10193" lon="6.45435">
        <ele>1581.03</ele>
        <time>2012-01-03T09:57:46Z</time>
      </trkpt>
      <trkpt lat="46.10193" lon="6.45447">
        <ele>1582.47</ele>
        <time>2012-01-03T09:58:00Z</time>
      </trkpt>
      <trkpt lat="46.10191" lon="6.45454">
        <ele>1584.87</ele>
        <time>2012-01-03T09:58:12Z</time>
      </trkpt>
      <trkpt lat="46.1019" lon="6.4546">
        <ele>1586.79</ele>
        <time>2012-01-03T09:58:25Z</time>
      </trkpt>
      <trkpt lat="46.10189" lon="6.45467">
        <ele>1588.24</ele>
        <time>2012-01-03T09:58:35Z</time>
      </trkpt>
      <trkpt lat="46.10188" lon="6.45478">
        <ele>1591.6</ele>
        <time>2012-01-03T09:58:45Z</time>
      </trkpt>
      <trkpt lat="46.10187" lon="6.45483">
        <ele>1591.6</ele>
        <time>2012-01-03T09:58:55Z</time>
      </trkpt>
      <trkpt lat="46.10186" lon="6.45491">
        <ele>1594</ele>
        <time>2012-01-03T09:59:07Z</time>
      </trkpt>
      <trkpt lat="46.10187" lon="6.45498">
        <ele>1595.93</ele>
        <time>2012-01-03T09:59:18Z</time>
      </trkpt>
      <trkpt lat="46.10184" lon="6.45505">
        <ele>1596.89</ele>
        <time>2012-01-03T09:59:29Z</time>
      </trkpt>
      <trkpt lat="46.10183" lon="6.4552">
        <ele>1599.77</ele>
        <time>2012-01-03T09:59:46Z</time>
      </trkpt>
      <trkpt lat="46.10185" lon="6.45526">
        <ele>1601.21</ele>
        <time>2012-01-03T09:59:59Z</time>
      </trkpt>
      <trkpt lat="46.10186" lon="6.45523">
        <ele>1603.14</ele>
        <time>2012-01-03T10:00:11Z</time>
      </trkpt>
      <trkpt lat="46.10192" lon="6.45518">
        <ele>1605.06</ele>
        <time>2012-01-03T10:00:25Z</time>
      </trkpt>
      <trkpt lat="46.10197" lon="6.45513">
        <ele>1607.46</ele>
        <time>2012-01-03T10:00:41Z</time>
      </trkpt>
      <trkpt lat="46.10202" lon="6.45511">
        <ele>1608.42</ele>
        <time>2012-01-03T10:00:56Z</time>
      </trkpt>
      <trkpt lat="46.10204" lon="6.4551">
        <ele>1609.86</ele>
        <time>2012-01-03T10:00:58Z</time>
      </trkpt>
      <trkpt lat="46.10208" lon="6.45508">
        <ele>1611.31</ele>
        <time>2012-01-03T10:01:10Z</time>
      </trkpt>
      <trkpt lat="46.10215" lon="6.45506">
        <ele>1613.23</ele>
        <time>2012-01-03T10:01:22Z</time>
      </trkpt>
      <trkpt lat="46.10215" lon="6.45505">
        <ele>1613.71</ele>
        <time>2012-01-03T10:01:31Z</time>
      </trkpt>
      <trkpt lat="46.10216" lon="6.45506">
        <ele>1614.19</ele>
        <time>2012-01-03T10:01:42Z</time>
      </trkpt>
      <trkpt lat="46.10215" lon="6.4551">
        <ele>1615.63</ele>
        <time>2012-01-03T10:01:51Z</time>
      </trkpt>
      <trkpt lat="46.10212" lon="6.4552">
        <ele>1617.07</ele>
        <time>2012-01-03T10:02:03Z</time>
      </trkpt>
      <trkpt lat="46.10211" lon="6.45529">
        <ele>1619.48</ele>
        <time>2012-01-03T10:02:18Z</time>
      </trkpt>
      <trkpt lat="46.10211" lon="6.45535">
        <ele>1620.44</ele>
        <time>2012-01-03T10:02:30Z</time>
      </trkpt>
      <trkpt lat="46.10209" lon="6.45546">
        <ele>1622.84</ele>
        <time>2012-01-03T10:02:44Z</time>
      </trkpt>
      <trkpt lat="46.10209" lon="6.45549">
        <ele>1624.77</ele>
        <time>2012-01-03T10:02:48Z</time>
      </trkpt>
      <trkpt lat="46.10208" lon="6.45559">
        <ele>1624.77</ele>
        <time>2012-01-03T10:03:01Z</time>
      </trkpt>
      <trkpt lat="46.10206" lon="6.45569">
        <ele>1627.17</ele>
        <time>2012-01-03T10:03:16Z</time>
      </trkpt>
      <trkpt lat="46.10205" lon="6.45576">
        <ele>1629.09</ele>
        <time>2012-01-03T10:03:27Z</time>
      </trkpt>
      <trkpt lat="46.10204" lon="6.45578">
        <ele>1630.53</ele>
        <time>2012-01-03T10:03:37Z</time>
      </trkpt>
      <trkpt lat="46.10204" lon="6.45586">
        <ele>1631.49</ele>
        <time>2012-01-03T10:03:46Z</time>
      </trkpt>
      <trkpt lat="46.10204" lon="6.45592">
        <ele>1632.94</ele>
        <time>2012-01-03T10:03:56Z</time>
      </trkpt>
      <trkpt lat="46.10207" lon="6.45588">
        <ele>1633.9</ele>
        <time>2012-01-03T10:04:06Z</time>
      </trkpt>
      <trkpt lat="46.10213" lon="6.45582">
        <ele>1636.3</ele>
        <time>2012-01-03T10:04:21Z</time>
      </trkpt>
      <trkpt lat="46.10217" lon="6.45578">
        <ele>1637.26</ele>
        <time>2012-01-03T10:04:32Z</time>
      </trkpt>
      <trkpt lat="46.10223" lon="6.45575">
        <ele>1639.67</ele>
        <time>2012-01-03T10:04:46Z</time>
      </trkpt>
      <trkpt lat="46.10229" lon="6.4557">
        <ele>1641.11</ele>
        <time>2012-01-03T10:05:01Z</time>
      </trkpt>
      <trkpt lat="46.10232" lon="6.45567">
        <ele>1642.07</ele>
        <time>2012-01-03T10:05:10Z</time>
      </trkpt>
      <trkpt lat="46.10236" lon="6.45565">
        <ele>1643.99</ele>
        <time>2012-01-03T10:05:26Z</time>
      </trkpt>
      <trkpt lat="46.10241" lon="6.4556">
        <ele>1644.95</ele>
        <time>2012-01-03T10:05:39Z</time>
      </trkpt>
      <trkpt lat="46.10248" lon="6.45556">
        <ele>1646.4</ele>
        <time>2012-01-03T10:05:51Z</time>
      </trkpt>
      <trkpt lat="46.10252" lon="6.45553">
        <ele>1648.8</ele>
        <time>2012-01-03T10:06:05Z</time>
      </trkpt>
      <trkpt lat="46.10259" lon="6.45551">
        <ele>1650.24</ele>
        <time>2012-01-03T10:06:18Z</time>
      </trkpt>
      <trkpt lat="46.10265" lon="6.45549">
        <ele>1653.12</ele>
        <time>2012-01-03T10:06:30Z</time>
      </trkpt>
      <trkpt lat="46.10272" lon="6.45547">
        <ele>1654.57</ele>
        <time>2012-01-03T10:06:41Z</time>
      </trkpt>
      <trkpt lat="46.10275" lon="6.45546">
        <ele>1657.45</ele>
        <time>2012-01-03T10:06:50Z</time>
      </trkpt>
      <trkpt lat="46.10279" lon="6.45546">
        <ele>1657.45</ele>
        <time>2012-01-03T10:07:01Z</time>
      </trkpt>
      <trkpt lat="46.10279" lon="6.45547">
        <ele>1657.93</ele>
        <time>2012-01-03T10:07:12Z</time>
      </trkpt>
      <trkpt lat="46.10276" lon="6.45556">
        <ele>1660.33</ele>
        <time>2012-01-03T10:07:25Z</time>
      </trkpt>
      <trkpt lat="46.10272" lon="6.45564">
        <ele>1661.3</ele>
        <time>2012-01-03T10:07:40Z</time>
      </trkpt>
      <trkpt lat="46.1027" lon="6.45574">
        <ele>1663.22</ele>
        <time>2012-01-03T10:07:53Z</time>
      </trkpt>
      <trkpt lat="46.10266" lon="6.45582">
        <ele>1665.14</ele>
        <time>2012-01-03T10:08:07Z</time>
      </trkpt>
      <trkpt lat="46.10264" lon="6.45589">
        <ele>1666.58</ele>
        <time>2012-01-03T10:08:21Z</time>
      </trkpt>
      <trkpt lat="46.10262" lon="6.45596">
        <ele>1667.54</ele>
        <time>2012-01-03T10:08:30Z</time>
      </trkpt>
      <trkpt lat="46.10261" lon="6.45602">
        <ele>1668.99</ele>
        <time>2012-01-03T10:08:41Z</time>
      </trkpt>
      <trkpt lat="46.1026" lon="6.45608">
        <ele>1670.43</ele>
        <time>2012-01-03T10:08:54Z</time>
      </trkpt>
      <trkpt lat="46.10259" lon="6.45615">
        <ele>1671.87</ele>
        <time>2012-01-03T10:09:03Z</time>
      </trkpt>
      <trkpt lat="46.10257" lon="6.45622">
        <ele>1673.31</ele>
        <time>2012-01-03T10:09:16Z</time>
      </trkpt>
      <trkpt lat="46.10255" lon="6.45632">
        <ele>1675.72</ele>
        <time>2012-01-03T10:09:28Z</time>
      </trkpt>
      <trkpt lat="46.10254" lon="6.4564">
        <ele>1677.16</ele>
        <time>2012-01-03T10:09:42Z</time>
      </trkpt>
      <trkpt lat="46.10253" lon="6.45648">
        <ele>1678.6</ele>
        <time>2012-01-03T10:09:52Z</time>
      </trkpt>
      <trkpt lat="46.10253" lon="6.45653">
        <ele>1680.04</ele>
        <time>2012-01-03T10:10:03Z</time>
      </trkpt>
      <trkpt lat="46.10252" lon="6.45657">
        <ele>1680.52</ele>
        <time>2012-01-03T10:10:12Z</time>
      </trkpt>
      <trkpt lat="46.10252" lon="6.45659">
        <ele>1681</ele>
        <time>2012-01-03T10:10:20Z</time>
      </trkpt>
      <trkpt lat="46.10254" lon="6.45658">
        <ele>1681.48</ele>
        <time>2012-01-03T10:10:31Z</time>
      </trkpt>
      <trkpt lat="46.10258" lon="6.45654">
        <ele>1683.41</ele>
        <time>2012-01-03T10:10:42Z</time>
      </trkpt>
      <trkpt lat="46.10261" lon="6.45651">
        <ele>1685.81</ele>
        <time>2012-01-03T10:10:53Z</time>
      </trkpt>
      <trkpt lat="46.10267" lon="6.45646">
        <ele>1685.81</ele>
        <time>2012-01-03T10:11:07Z</time>
      </trkpt>
      <trkpt lat="46.10272" lon="6.45643">
        <ele>1687.73</ele>
        <time>2012-01-03T10:11:21Z</time>
      </trkpt>
      <trkpt lat="46.10279" lon="6.4564">
        <ele>1689.65</ele>
        <time>2012-01-03T10:11:35Z</time>
      </trkpt>
      <trkpt lat="46.10283" lon="6.45637">
        <ele>1691.1</ele>
        <time>2012-01-03T10:11:46Z</time>
      </trkpt>
      <trkpt lat="46.10289" lon="6.45635">
        <ele>1693.02</ele>
        <time>2012-01-03T10:11:59Z</time>
      </trkpt>
      <trkpt lat="46.10294" lon="6.45633">
        <ele>1694.46</ele>
        <time>2012-01-03T10:12:11Z</time>
      </trkpt>
      <trkpt lat="46.10299" lon="6.45631">
        <ele>1696.86</ele>
        <time>2012-01-03T10:12:24Z</time>
      </trkpt>
      <trkpt lat="46.10305" lon="6.45629">
        <ele>1698.79</ele>
        <time>2012-01-03T10:12:36Z</time>
      </trkpt>
      <trkpt lat="46.10307" lon="6.45629">
        <ele>1699.27</ele>
        <time>2012-01-03T10:12:44Z</time>
      </trkpt>
      <trkpt lat="46.10307" lon="6.45631">
        <ele>1700.23</ele>
        <time>2012-01-03T10:12:54Z</time>
      </trkpt>
      <trkpt lat="46.10306" lon="6.45637">
        <ele>1701.19</ele>
        <time>2012-01-03T10:13:04Z</time>
      </trkpt>
      <trkpt lat="46.10305" lon="6.45644">
        <ele>1703.11</ele>
        <time>2012-01-03T10:13:17Z</time>
      </trkpt>
      <trkpt lat="46.10303" lon="6.45652">
        <ele>1705.04</ele>
        <time>2012-01-03T10:13:31Z</time>
      </trkpt>
      <trkpt lat="46.10302" lon="6.45658">
        <ele>1706</ele>
        <time>2012-01-03T10:13:42Z</time>
      </trkpt>
      <trkpt lat="46.103" lon="6.45665">
        <ele>1707.44</ele>
        <time>2012-01-03T10:13:54Z</time>
      </trkpt>
      <trkpt lat="46.103" lon="6.45669">
        <ele>1708.88</ele>
        <time>2012-01-03T10:14:04Z</time>
      </trkpt>
      <trkpt lat="46.10298" lon="6.45677">
        <ele>1711.28</ele>
        <time>2012-01-03T10:14:16Z</time>
      </trkpt>
      <trkpt lat="46.10297" lon="6.45684">
        <ele>1712.25</ele>
        <time>2012-01-03T10:14:28Z</time>
      </trkpt>
      <trkpt lat="46.10296" lon="6.45689">
        <ele>1714.65</ele>
        <time>2012-01-03T10:14:42Z</time>
      </trkpt>
      <trkpt lat="46.10295" lon="6.45696">
        <ele>1715.61</ele>
        <time>2012-01-03T10:14:55Z</time>
      </trkpt>
      <trkpt lat="46.10292" lon="6.45706">
        <ele>1718.01</ele>
        <time>2012-01-03T10:15:07Z</time>
      </trkpt>
      <trkpt lat="46.10292" lon="6.45706">
        <ele>1719.46</ele>
        <time>2012-01-03T10:15:20Z</time>
      </trkpt>
      <trkpt lat="46.10293" lon="6.45708">
        <ele>1719.94</ele>
        <time>2012-01-03T10:15:30Z</time>
      </trkpt>
      <trkpt lat="46.10293" lon="6.45708">
        <ele>1720.9</ele>
        <time>2012-01-03T10:15:43Z</time>
      </trkpt>
      <trkpt lat="46.10293" lon="6.45708">
        <ele>1722.34</ele>
        <time>2012-01-03T10:15:56Z</time>
      </trkpt>
      <trkpt lat="46.10293" lon="6.45708">
        <ele>1724.74</ele>
        <time>2012-01-03T10:16:04Z</time>
      </trkpt>
      <trkpt lat="46.10296" lon="6.45707">
        <ele>1724.74</ele>
        <time>2012-01-03T10:16:15Z</time>
      </trkpt>
      <trkpt lat="46.10296" lon="6.45707">
        <ele>1726.67</ele>
        <time>2012-01-03T10:16:28Z</time>
      </trkpt>
      <trkpt lat="46.10301" lon="6.45705">
        <ele>1727.15</ele>
        <time>2012-01-03T10:16:39Z</time>
      </trkpt>
      <trkpt lat="46.1031" lon="6.45701">
        <ele>1729.07</ele>
        <time>2012-01-03T10:16:52Z</time>
      </trkpt>
      <trkpt lat="46.10313" lon="6.45699">
        <ele>1730.51</ele>
        <time>2012-01-03T10:17:03Z</time>
      </trkpt>
      <trkpt lat="46.1032" lon="6.45696">
        <ele>1731.47</ele>
        <time>2012-01-03T10:17:14Z</time>
      </trkpt>
      <trkpt lat="46.10324" lon="6.45695">
        <ele>1732.91</ele>
        <time>2012-01-03T10:17:26Z</time>
      </trkpt>
      <trkpt lat="46.10324" lon="6.45695">
        <ele>1733.88</ele>
        <time>2012-01-03T10:17:41Z</time>
      </trkpt>
      <trkpt lat="46.10324" lon="6.45695">
        <ele>1734.84</ele>
        <time>2012-01-03T10:17:45Z</time>
      </trkpt>
      <trkpt lat="46.10338" lon="6.45688">
        <ele>1736.76</ele>
        <time>2012-01-03T10:18:00Z</time>
      </trkpt>
      <trkpt lat="46.10342" lon="6.45686">
        <ele>1738.68</ele>
        <time>2012-01-03T10:18:13Z</time>
      </trkpt>
      <trkpt lat="46.10342" lon="6.45686">
        <ele>1738.68</ele>
        <time>2012-01-03T10:18:14Z</time>
      </trkpt>
      <trkpt lat="46.1035" lon="6.45683">
        <ele>1739.64</ele>
        <time>2012-01-03T10:18:26Z</time>
      </trkpt>
      <trkpt lat="46.10358" lon="6.45681">
        <ele>1741.57</ele>
        <time>2012-01-03T10:18:40Z</time>
      </trkpt>
      <trkpt lat="46.10367" lon="6.4568">
        <ele>1743.49</ele>
        <time>2012-01-03T10:18:53Z</time>
      </trkpt>
      <trkpt lat="46.10368" lon="6.4568">
        <ele>1743.97</ele>
        <time>2012-01-03T10:19:03Z</time>
      </trkpt>
      <trkpt lat="46.10368" lon="6.4568">
        <ele>1744.45</ele>
        <time>2012-01-03T10:19:15Z</time>
      </trkpt>
      <trkpt lat="46.10366" lon="6.45687">
        <ele>1745.89</ele>
        <time>2012-01-03T10:19:28Z</time>
      </trkpt>
      <trkpt lat="46.10365" lon="6.45692">
        <ele>1747.33</ele>
        <time>2012-01-03T10:19:39Z</time>
      </trkpt>
      <trkpt lat="46.10364" lon="6.45696">
        <ele>1748.78</ele>
        <time>2012-01-03T10:19:50Z</time>
      </trkpt>
      <trkpt lat="46.10362" lon="6.45702">
        <ele>1750.22</ele>
        <time>2012-01-03T10:20:02Z</time>
      </trkpt>
      <trkpt lat="46.10362" lon="6.45704">
        <ele>1751.66</ele>
        <time>2012-01-03T10:20:06Z</time>
      </trkpt>
      <trkpt lat="46.1036" lon="6.4571">
        <ele>1752.62</ele>
        <time>2012-01-03T10:20:18Z</time>
      </trkpt>
      <trkpt lat="46.10359" lon="6.45715">
        <ele>1753.58</ele>
        <time>2012-01-03T10:20:29Z</time>
      </trkpt>
      <trkpt lat="46.10356" lon="6.45724">
        <ele>1755.5</ele>
        <time>2012-01-03T10:20:44Z</time>
      </trkpt>
      <trkpt lat="46.10354" lon="6.45732">
        <ele>1757.91</ele>
        <time>2012-01-03T10:20:58Z</time>
      </trkpt>
      <trkpt lat="46.10352" lon="6.4574">
        <ele>1759.35</ele>
        <time>2012-01-03T10:21:10Z</time>
      </trkpt>
      <trkpt lat="46.10352" lon="6.4574">
        <ele>1760.79</ele>
        <time>2012-01-03T10:21:22Z</time>
      </trkpt>
      <trkpt lat="46.10349" lon="6.45751">
        <ele>1762.23</ele>
        <time>2012-01-03T10:21:34Z</time>
      </trkpt>
      <trkpt lat="46.10348" lon="6.45755">
        <ele>1764.16</ele>
        <time>2012-01-03T10:21:46Z</time>
      </trkpt>
      <trkpt lat="46.10348" lon="6.4576">
        <ele>1765.6</ele>
        <time>2012-01-03T10:21:58Z</time>
      </trkpt>
      <trkpt lat="46.10346" lon="6.45772">
        <ele>1768.48</ele>
        <time>2012-01-03T10:22:07Z</time>
      </trkpt>
      <trkpt lat="46.10345" lon="6.45777">
        <ele>1768</ele>
        <time>2012-01-03T10:22:16Z</time>
      </trkpt>
      <trkpt lat="46.10345" lon="6.45777">
        <ele>1768</ele>
        <time>2012-01-03T10:22:32Z</time>
      </trkpt>
      <trkpt lat="46.10348" lon="6.45777">
        <ele>1769.44</ele>
        <time>2012-01-03T10:22:46Z</time>
      </trkpt>
      <trkpt lat="46.10352" lon="6.45773">
        <ele>1771.37</ele>
        <time>2012-01-03T10:22:59Z</time>
      </trkpt>
      <trkpt lat="46.10355" lon="6.45771">
        <ele>1772.81</ele>
        <time>2012-01-03T10:23:11Z</time>
      </trkpt>
      <trkpt lat="46.10355" lon="6.45771">
        <ele>1774.73</ele>
        <time>2012-01-03T10:23:27Z</time>
      </trkpt>
      <trkpt lat="46.1036" lon="6.45768">
        <ele>1775.69</ele>
        <time>2012-01-03T10:23:38Z</time>
      </trkpt>
      <trkpt lat="46.10368" lon="6.45763">
        <ele>1777.61</ele>
        <time>2012-01-03T10:23:52Z</time>
      </trkpt>
      <trkpt lat="46.10371" lon="6.45761">
        <ele>1781.46</ele>
        <time>2012-01-03T10:24:07Z</time>
      </trkpt>
      <trkpt lat="46.10371" lon="6.45761">
        <ele>1781.46</ele>
        <time>2012-01-03T10:24:08Z</time>
      </trkpt>
      <trkpt lat="46.10371" lon="6.45761">
        <ele>1781.46</ele>
        <time>2012-01-03T10:24:18Z</time>
      </trkpt>
      <trkpt lat="46.10382" lon="6.45754">
        <ele>1783.86</ele>
        <time>2012-01-03T10:24:32Z</time>
      </trkpt>
      <trkpt lat="46.10393" lon="6.4575">
        <ele>1785.79</ele>
        <time>2012-01-03T10:24:45Z</time>
      </trkpt>
      <trkpt lat="46.10393" lon="6.4575">
        <ele>1787.23</ele>
        <time>2012-01-03T10:24:57Z</time>
      </trkpt>
      <trkpt lat="46.10401" lon="6.45745">
        <ele>1789.15</ele>
        <time>2012-01-03T10:25:09Z</time>
      </trkpt>
      <trkpt lat="46.10405" lon="6.45744">
        <ele>1789.15</ele>
        <time>2012-01-03T10:25:15Z</time>
      </trkpt>
      <trkpt lat="46.10408" lon="6.45747">
        <ele>1789.63</ele>
        <time>2012-01-03T10:25:24Z</time>
      </trkpt>
      <trkpt lat="46.10408" lon="6.45757">
        <ele>1792.52</ele>
        <time>2012-01-03T10:25:38Z</time>
      </trkpt>
      <trkpt lat="46.10407" lon="6.45761">
        <ele>1793.48</ele>
        <time>2012-01-03T10:25:49Z</time>
      </trkpt>
      <trkpt lat="46.10407" lon="6.45766">
        <ele>1795.4</ele>
        <time>2012-01-03T10:26:03Z</time>
      </trkpt>
      <trkpt lat="46.10406" lon="6.4577">
        <ele>1796.84</ele>
        <time>2012-01-03T10:26:09Z</time>
      </trkpt>
      <trkpt lat="46.10404" lon="6.45773">
        <ele>1796.84</ele>
        <time>2012-01-03T10:26:20Z</time>
      </trkpt>
      <trkpt lat="46.10403" lon="6.45779">
        <ele>1797.8</ele>
        <time>2012-01-03T10:26:30Z</time>
      </trkpt>
      <trkpt lat="46.10401" lon="6.45785">
        <ele>1799.24</ele>
        <time>2012-01-03T10:26:41Z</time>
      </trkpt>
      <trkpt lat="46.10399" lon="6.45792">
        <ele>1801.17</ele>
        <time>2012-01-03T10:26:52Z</time>
      </trkpt>
      <trkpt lat="46.10397" lon="6.45801">
        <ele>1803.57</ele>
        <time>2012-01-03T10:27:04Z</time>
      </trkpt>
      <trkpt lat="46.10396" lon="6.45808">
        <ele>1804.53</ele>
        <time>2012-01-03T10:27:15Z</time>
      </trkpt>
      <trkpt lat="46.10395" lon="6.45813">
        <ele>1805.97</ele>
        <time>2012-01-03T10:27:26Z</time>
      </trkpt>
      <trkpt lat="46.10396" lon="6.45812">
        <ele>1805.97</ele>
        <time>2012-01-03T10:27:35Z</time>
      </trkpt>
      <trkpt lat="46.10399" lon="6.4581">
        <ele>1806.94</ele>
        <time>2012-01-03T10:27:46Z</time>
      </trkpt>
      <trkpt lat="46.10402" lon="6.45808">
        <ele>1808.38</ele>
        <time>2012-01-03T10:27:57Z</time>
      </trkpt>
      <trkpt lat="46.10409" lon="6.45804">
        <ele>1811.26</ele>
        <time>2012-01-03T10:28:10Z</time>
      </trkpt>
      <trkpt lat="46.1041" lon="6.45802">
        <ele>1809.82</ele>
        <time>2012-01-03T10:28:12Z</time>
      </trkpt>
      <trkpt lat="46.10412" lon="6.45802">
        <ele>1811.26</ele>
        <time>2012-01-03T10:28:20Z</time>
      </trkpt>
      <trkpt lat="46.1042" lon="6.45798">
        <ele>1812.22</ele>
        <time>2012-01-03T10:28:34Z</time>
      </trkpt>
      <trkpt lat="46.10426" lon="6.45794">
        <ele>1813.66</ele>
        <time>2012-01-03T10:28:47Z</time>
      </trkpt>
      <trkpt lat="46.10432" lon="6.45792">
        <ele>1815.11</ele>
        <time>2012-01-03T10:29:04Z</time>
      </trkpt>
      <trkpt lat="46.10438" lon="6.45788">
        <ele>1816.55</ele>
        <time>2012-01-03T10:29:15Z</time>
      </trkpt>
      <trkpt lat="46.10438" lon="6.45789">
        <ele>1817.51</ele>
        <time>2012-01-03T10:29:22Z</time>
      </trkpt>
      <trkpt lat="46.10434" lon="6.45798">
        <ele>1818.95</ele>
        <time>2012-01-03T10:29:35Z</time>
      </trkpt>
      <trkpt lat="46.10432" lon="6.45804">
        <ele>1820.39</ele>
        <time>2012-01-03T10:29:46Z</time>
      </trkpt>
      <trkpt lat="46.10431" lon="6.45806">
        <ele>1821.35</ele>
        <time>2012-01-03T10:29:55Z</time>
      </trkpt>
      <trkpt lat="46.10435" lon="6.45804">
        <ele>1822.8</ele>
        <time>2012-01-03T10:30:05Z</time>
      </trkpt>
      <trkpt lat="46.10437" lon="6.45804">
        <ele>1824.24</ele>
        <time>2012-01-03T10:30:11Z</time>
      </trkpt>
      <trkpt lat="46.10445" lon="6.45801">
        <ele>1824.24</ele>
        <time>2012-01-03T10:30:24Z</time>
      </trkpt>
      <trkpt lat="46.1045" lon="6.45798">
        <ele>1826.16</ele>
        <time>2012-01-03T10:30:35Z</time>
      </trkpt>
      <trkpt lat="46.10456" lon="6.45796">
        <ele>1827.12</ele>
        <time>2012-01-03T10:30:50Z</time>
      </trkpt>
      <trkpt lat="46.10462" lon="6.45794">
        <ele>1828.08</ele>
        <time>2012-01-03T10:31:00Z</time>
      </trkpt>
      <trkpt lat="46.10467" lon="6.45793">
        <ele>1830.01</ele>
        <time>2012-01-03T10:31:12Z</time>
      </trkpt>
      <trkpt lat="46.10467" lon="6.45795">
        <ele>1830.97</ele>
        <time>2012-01-03T10:31:23Z</time>
      </trkpt>
      <trkpt lat="46.10464" lon="6.45802">
        <ele>1833.37</ele>
        <time>2012-01-03T10:31:35Z</time>
      </trkpt>
      <trkpt lat="46.10461" lon="6.45811">
        <ele>1835.29</ele>
        <time>2012-01-03T10:31:48Z</time>
      </trkpt>
      <trkpt lat="46.10459" lon="6.45822">
        <ele>1838.18</ele>
        <time>2012-01-03T10:32:03Z</time>
      </trkpt>
      <trkpt lat="46.10462" lon="6.45826">
        <ele>1841.06</ele>
        <time>2012-01-03T10:32:11Z</time>
      </trkpt>
      <trkpt lat="46.10465" lon="6.45825">
        <ele>1841.06</ele>
        <time>2012-01-03T10:32:14Z</time>
      </trkpt>
      <trkpt lat="46.10474" lon="6.45822">
        <ele>1842.5</ele>
        <time>2012-01-03T10:32:28Z</time>
      </trkpt>
      <trkpt lat="46.10478" lon="6.4582">
        <ele>1843.95</ele>
        <time>2012-01-03T10:32:35Z</time>
      </trkpt>
      <trkpt lat="46.10488" lon="6.45816">
        <ele>1844.91</ele>
        <time>2012-01-03T10:32:49Z</time>
      </trkpt>
      <trkpt lat="46.10488" lon="6.45815">
        <ele>1844.91</ele>
        <time>2012-01-03T10:32:50Z</time>
      </trkpt>
      <trkpt lat="46.10498" lon="6.45809">
        <ele>1846.35</ele>
        <time>2012-01-03T10:33:05Z</time>
      </trkpt>
      <trkpt lat="46.10506" lon="6.45806">
        <ele>1847.79</ele>
        <time>2012-01-03T10:33:19Z</time>
      </trkpt>
      <trkpt lat="46.10514" lon="6.45802">
        <ele>1848.75</ele>
        <time>2012-01-03T10:33:32Z</time>
      </trkpt>
      <trkpt lat="46.10516" lon="6.45801">
        <ele>1849.23</ele>
        <time>2012-01-03T10:33:35Z</time>
      </trkpt>
      <trkpt lat="46.10526" lon="6.45795">
        <ele>1851.16</ele>
        <time>2012-01-03T10:33:50Z</time>
      </trkpt>
      <trkpt lat="46.10536" lon="6.45788">
        <ele>1852.6</ele>
        <time>2012-01-03T10:34:05Z</time>
      </trkpt>
      <trkpt lat="46.10539" lon="6.45787">
        <ele>1854.52</ele>
        <time>2012-01-03T10:34:12Z</time>
      </trkpt>
      <trkpt lat="46.10546" lon="6.45782">
        <ele>1855</ele>
        <time>2012-01-03T10:34:25Z</time>
      </trkpt>
      <trkpt lat="46.10551" lon="6.45779">
        <ele>1856.92</ele>
        <time>2012-01-03T10:34:32Z</time>
      </trkpt>
      <trkpt lat="46.10558" lon="6.45774">
        <ele>1859.33</ele>
        <time>2012-01-03T10:34:47Z</time>
      </trkpt>
      <trkpt lat="46.10561" lon="6.45772">
        <ele>1860.29</ele>
        <time>2012-01-03T10:34:50Z</time>
      </trkpt>
      <trkpt lat="46.10567" lon="6.45767">
        <ele>1862.69</ele>
        <time>2012-01-03T10:35:02Z</time>
      </trkpt>
      <trkpt lat="46.10575" lon="6.45762">
        <ele>1866.06</ele>
        <time>2012-01-03T10:35:16Z</time>
      </trkpt>
      <trkpt lat="46.10579" lon="6.4576">
        <ele>1867.5</ele>
        <time>2012-01-03T10:35:28Z</time>
      </trkpt>
      <trkpt lat="46.10579" lon="6.4576">
        <ele>1867.5</ele>
        <time>2012-01-03T10:35:55Z</time>
      </trkpt>
      <trkpt lat="46.1058" lon="6.45761">
        <ele>1867.5</ele>
        <time>2012-01-03T10:36:26Z</time>
      </trkpt>
      <trkpt lat="46.1058" lon="6.45761">
        <ele>1867.02</ele>
        <time>2012-01-03T10:36:50Z</time>
      </trkpt>
      <trkpt lat="46.1058" lon="6.4576">
        <ele>1867.02</ele>
        <time>2012-01-03T10:37:07Z</time>
      </trkpt>
      <trkpt lat="46.10577" lon="6.45759">
        <ele>1867.02</ele>
        <time>2012-01-03T10:37:19Z</time>
      </trkpt>
      <trkpt lat="46.10577" lon="6.45759">
        <ele>1866.54</ele>
        <time>2012-01-03T10:37:42Z</time>
      </trkpt>
      <trkpt lat="46.10578" lon="6.4576">
        <ele>1866.54</ele>
        <time>2012-01-03T10:38:02Z</time>
      </trkpt>
      <trkpt lat="46.10578" lon="6.4576">
        <ele>1867.02</ele>
        <time>2012-01-03T10:38:23Z</time>
      </trkpt>
      <trkpt lat="46.10578" lon="6.4576">
        <ele>1867.02</ele>
        <time>2012-01-03T10:38:46Z</time>
      </trkpt>
      <trkpt lat="46.10578" lon="6.4576">
        <ele>1866.06</ele>
        <time>2012-01-03T10:39:05Z</time>
      </trkpt>
      <trkpt lat="46.10578" lon="6.4576">
        <ele>1866.06</ele>
        <time>2012-01-03T10:39:22Z</time>
      </trkpt>
      <trkpt lat="46.10578" lon="6.45759">
        <ele>1872.79</ele>
        <time>2012-01-03T10:39:27Z</time>
      </trkpt>
      <trkpt lat="46.10578" lon="6.45758">
        <ele>1867.5</ele>
        <time>2012-01-03T10:39:28Z</time>
      </trkpt>
      <trkpt lat="46.10578" lon="6.45759">
        <ele>1866.06</ele>
        <time>2012-01-03T10:39:30Z</time>
      </trkpt>
      <trkpt lat="46.10578" lon="6.45759">
        <ele>1865.58</ele>
        <time>2012-01-03T10:40:07Z</time>
      </trkpt>
      <trkpt lat="46.10578" lon="6.45759">
        <ele>1865.58</ele>
        <time>2012-01-03T10:40:39Z</time>
      </trkpt>
      <trkpt lat="46.10578" lon="6.45759">
        <ele>1865.58</ele>
        <time>2012-01-03T10:41:17Z</time>
      </trkpt>
      <trkpt lat="46.10578" lon="6.45759">
        <ele>1865.09</ele>
        <time>2012-01-03T10:42:01Z</time>
      </trkpt>
      <trkpt lat="46.10578" lon="6.45759">
        <ele>1865.09</ele>
        <time>2012-01-03T10:42:50Z</time>
      </trkpt>
      <trkpt lat="46.10578" lon="6.45759">
        <ele>1865.09</ele>
        <time>2012-01-03T10:43:01Z</time>
      </trkpt>
      <trkpt lat="46.10578" lon="6.45759">
        <ele>1866.54</ele>
        <time>2012-01-03T10:43:04Z</time>
      </trkpt>
      <trkpt lat="46.10578" lon="6.4576">
        <ele>1866.54</ele>
        <time>2012-01-03T10:43:10Z</time>
      </trkpt>
      <trkpt lat="46.10579" lon="6.4576">
        <ele>1866.54</ele>
        <time>2012-01-03T10:43:14Z</time>
      </trkpt>
      <trkpt lat="46.1058" lon="6.45759">
        <ele>1865.58</ele>
        <time>2012-01-03T10:43:22Z</time>
      </trkpt>
      <trkpt lat="46.1058" lon="6.4576">
        <ele>1866.06</ele>
        <time>2012-01-03T10:43:35Z</time>
      </trkpt>
      <trkpt lat="46.1058" lon="6.45761">
        <ele>1866.06</ele>
        <time>2012-01-03T10:43:50Z</time>
      </trkpt>
      <trkpt lat="46.10579" lon="6.45761">
        <ele>1862.21</ele>
        <time>2012-01-03T10:44:05Z</time>
      </trkpt>
      <trkpt lat="46.10579" lon="6.45761">
        <ele>1866.06</ele>
        <time>2012-01-03T10:44:06Z</time>
      </trkpt>
      <trkpt lat="46.10579" lon="6.45761">
        <ele>1866.54</ele>
        <time>2012-01-03T10:44:08Z</time>
      </trkpt>
      <trkpt lat="46.10579" lon="6.45761">
        <ele>1866.06</ele>
        <time>2012-01-03T10:44:37Z</time>
      </trkpt>
      <trkpt lat="46.10579" lon="6.45761">
        <ele>1866.54</ele>
        <time>2012-01-03T10:45:01Z</time>
      </trkpt>
      <trkpt lat="46.10579" lon="6.45761">
        <ele>1864.13</ele>
        <time>2012-01-03T10:45:05Z</time>
      </trkpt>
      <trkpt lat="46.10579" lon="6.45761">
        <ele>1866.06</ele>
        <time>2012-01-03T10:45:07Z</time>
      </trkpt>
      <trkpt lat="46.1058" lon="6.45761">
        <ele>1865.09</ele>
        <time>2012-01-03T10:45:18Z</time>
      </trkpt>
      <trkpt lat="46.1058" lon="6.4576">
        <ele>1857.4</ele>
        <time>2012-01-03T10:45:40Z</time>
      </trkpt>
      <trkpt lat="46.1058" lon="6.4576">
        <ele>1870.86</ele>
        <time>2012-01-03T10:45:41Z</time>
      </trkpt>
      <trkpt lat="46.1058" lon="6.4576">
        <ele>1866.54</ele>
        <time>2012-01-03T10:45:42Z</time>
      </trkpt>
      <trkpt lat="46.1058" lon="6.4576">
        <ele>1865.09</ele>
        <time>2012-01-03T10:45:44Z</time>
      </trkpt>
      <trkpt lat="46.1058" lon="6.4576">
        <ele>1866.54</ele>
        <time>2012-01-03T10:45:59Z</time>
      </trkpt>
      <trkpt lat="46.1058" lon="6.4576">
        <ele>1865.09</ele>
        <time>2012-01-03T10:46:12Z</time>
      </trkpt>
      <trkpt lat="46.1058" lon="6.4576">
        <ele>1865.58</ele>
        <time>2012-01-03T10:46:25Z</time>
      </trkpt>
      <trkpt lat="46.1058" lon="6.4576">
        <ele>1865.58</ele>
        <time>2012-01-03T10:46:56Z</time>
      </trkpt>
      <trkpt lat="46.1058" lon="6.4576">
        <ele>1866.54</ele>
        <time>2012-01-03T10:47:18Z</time>
      </trkpt>
      <trkpt lat="46.1058" lon="6.4576">
        <ele>1867.02</ele>
        <time>2012-01-03T10:47:25Z</time>
      </trkpt>
      <trkpt lat="46.1058" lon="6.4576">
        <ele>1862.69</ele>
        <time>2012-01-03T10:47:45Z</time>
      </trkpt>
      <trkpt lat="46.1058" lon="6.45761">
        <ele>1864.13</ele>
        <time>2012-01-03T10:47:46Z</time>
      </trkpt>
      <trkpt lat="46.1058" lon="6.4576">
        <ele>1867.98</ele>
        <time>2012-01-03T10:47:49Z</time>
      </trkpt>
      <trkpt lat="46.1058" lon="6.4576">
        <ele>1862.21</ele>
        <time>2012-01-03T10:47:51Z</time>
      </trkpt>
      <trkpt lat="46.1058" lon="6.4576">
        <ele>1869.42</ele>
        <time>2012-01-03T10:47:52Z</time>
      </trkpt>
      <trkpt lat="46.1058" lon="6.4576">
        <ele>1864.61</ele>
        <time>2012-01-03T10:47:53Z</time>
      </trkpt>
      <trkpt lat="46.1058" lon="6.4576">
        <ele>1869.42</ele>
        <time>2012-01-03T10:48:01Z</time>
      </trkpt>
      <trkpt lat="46.1058" lon="6.4576">
        <ele>1865.09</ele>
        <time>2012-01-03T10:48:02Z</time>
      </trkpt>
      <trkpt lat="46.1058" lon="6.4576">
        <ele>1875.19</ele>
        <time>2012-01-03T10:48:15Z</time>
      </trkpt>
      <trkpt lat="46.1058" lon="6.4576">
        <ele>1875.19</ele>
        <time>2012-01-03T10:48:16Z</time>
      </trkpt>
      <trkpt lat="46.1058" lon="6.4576">
        <ele>1867.02</ele>
        <time>2012-01-03T10:48:17Z</time>
      </trkpt>
      <trkpt lat="46.1058" lon="6.45761">
        <ele>1867.02</ele>
        <time>2012-01-03T10:48:18Z</time>
      </trkpt>
      <trkpt lat="46.1058" lon="6.4576">
        <ele>1853.56</ele>
        <time>2012-01-03T10:48:20Z</time>
      </trkpt>
      <trkpt lat="46.1058" lon="6.45759">
        <ele>1871.34</ele>
        <time>2012-01-03T10:48:21Z</time>
      </trkpt>
      <trkpt lat="46.1058" lon="6.4576">
        <ele>1857.89</ele>
        <time>2012-01-03T10:48:22Z</time>
      </trkpt>
      <trkpt lat="46.1058" lon="6.4576">
        <ele>1868.46</ele>
        <time>2012-01-03T10:48:23Z</time>
      </trkpt>
      <trkpt lat="46.1058" lon="6.4576">
        <ele>1865.58</ele>
        <time>2012-01-03T10:48:25Z</time>
      </trkpt>
      <trkpt lat="46.1058" lon="6.4576">
        <ele>1868.46</ele>
        <time>2012-01-03T10:48:29Z</time>
      </trkpt>
      <trkpt lat="46.1058" lon="6.4576">
        <ele>1865.58</ele>
        <time>2012-01-03T10:48:31Z</time>
      </trkpt>
      <trkpt lat="46.1058" lon="6.4576">
        <ele>1865.58</ele>
        <time>2012-01-03T10:48:32Z</time>
      </trkpt>
      <trkpt lat="46.1058" lon="6.4576">
        <ele>1867.02</ele>
        <time>2012-01-03T10:48:36Z</time>
      </trkpt>
      <trkpt lat="46.1058" lon="6.4576">
        <ele>1865.58</ele>
        <time>2012-01-03T10:48:45Z</time>
      </trkpt>
      <trkpt lat="46.1058" lon="6.4576">
        <ele>1866.54</ele>
        <time>2012-01-03T10:48:47Z</time>
      </trkpt>
      <trkpt lat="46.10579" lon="6.4576">
        <ele>1866.54</ele>
        <time>2012-01-03T10:49:19Z</time>
      </trkpt>
      <trkpt lat="46.10579" lon="6.4576">
        <ele>1859.81</ele>
        <time>2012-01-03T10:49:30Z</time>
      </trkpt>
      <trkpt lat="46.10579" lon="6.4576">
        <ele>1867.02</ele>
        <time>2012-01-03T10:49:31Z</time>
      </trkpt>
      <trkpt lat="46.10579" lon="6.4576">
        <ele>1865.58</ele>
        <time>2012-01-03T10:49:34Z</time>
      </trkpt>
      <trkpt lat="46.10579" lon="6.4576">
        <ele>1868.94</ele>
        <time>2012-01-03T10:49:48Z</time>
      </trkpt>
      <trkpt lat="46.10579" lon="6.4576">
        <ele>1866.06</ele>
        <time>2012-01-03T10:49:50Z</time>
      </trkpt>
      <trkpt lat="46.10579" lon="6.4576">
        <ele>1866.06</ele>
        <time>2012-01-03T10:49:51Z</time>
      </trkpt>
      <trkpt lat="46.1058" lon="6.4576">
        <ele>1862.69</ele>
        <time>2012-01-03T10:49:56Z</time>
      </trkpt>
      <trkpt lat="46.1058" lon="6.4576">
        <ele>1865.09</ele>
        <time>2012-01-03T10:49:57Z</time>
      </trkpt>
      <trkpt lat="46.10579" lon="6.4576">
        <ele>1868.94</ele>
        <time>2012-01-03T10:50:12Z</time>
      </trkpt>
      <trkpt lat="46.1058" lon="6.4576">
        <ele>1853.08</ele>
        <time>2012-01-03T10:50:13Z</time>
      </trkpt>
      <trkpt lat="46.1058" lon="6.45761">
        <ele>1860.29</ele>
        <time>2012-01-03T10:50:15Z</time>
      </trkpt>
      <trkpt lat="46.1058" lon="6.45762">
        <ele>1864.61</ele>
        <time>2012-01-03T10:50:16Z</time>
      </trkpt>
      <trkpt lat="46.10581" lon="6.45762">
        <ele>1864.61</ele>
        <time>2012-01-03T10:50:17Z</time>
      </trkpt>
      <trkpt lat="46.10579" lon="6.45757">
        <ele>1867.5</ele>
        <time>2012-01-03T10:50:27Z</time>
      </trkpt>
      <trkpt lat="46.10579" lon="6.45756">
        <ele>1865.58</ele>
        <time>2012-01-03T10:50:28Z</time>
      </trkpt>
      <trkpt lat="46.10578" lon="6.45753">
        <ele>1865.09</ele>
        <time>2012-01-03T10:50:30Z</time>
      </trkpt>
      <trkpt lat="46.10578" lon="6.45749">
        <ele>1880.48</ele>
        <time>2012-01-03T10:50:36Z</time>
      </trkpt>
      <trkpt lat="46.10577" lon="6.4575">
        <ele>1865.58</ele>
        <time>2012-01-03T10:50:37Z</time>
      </trkpt>
      <trkpt lat="46.10577" lon="6.4575">
        <ele>1865.58</ele>
        <time>2012-01-03T10:50:38Z</time>
      </trkpt>
      <trkpt lat="46.10577" lon="6.45752">
        <ele>1863.65</ele>
        <time>2012-01-03T10:50:40Z</time>
      </trkpt>
      <trkpt lat="46.10578" lon="6.45757">
        <ele>1867.98</ele>
        <time>2012-01-03T10:50:50Z</time>
      </trkpt>
      <trkpt lat="46.10578" lon="6.45757">
        <ele>1860.77</ele>
        <time>2012-01-03T10:50:53Z</time>
      </trkpt>
      <trkpt lat="46.10578" lon="6.45757">
        <ele>1864.61</ele>
        <time>2012-01-03T10:50:54Z</time>
      </trkpt>
      <trkpt lat="46.10578" lon="6.45757">
        <ele>1866.06</ele>
        <time>2012-01-03T10:50:57Z</time>
      </trkpt>
      <trkpt lat="46.10578" lon="6.45757">
        <ele>1870.38</ele>
        <time>2012-01-03T10:51:00Z</time>
      </trkpt>
      <trkpt lat="46.10578" lon="6.45757">
        <ele>1866.54</ele>
        <time>2012-01-03T10:51:01Z</time>
      </trkpt>
      <trkpt lat="46.10578" lon="6.45757">
        <ele>1866.54</ele>
        <time>2012-01-03T10:51:22Z</time>
      </trkpt>
      <trkpt lat="46.10578" lon="6.45757">
        <ele>1864.61</ele>
        <time>2012-01-03T10:51:25Z</time>
      </trkpt>
      <trkpt lat="46.10578" lon="6.45757">
        <ele>1866.54</ele>
        <time>2012-01-03T10:51:29Z</time>
      </trkpt>
      <trkpt lat="46.10578" lon="6.45757">
        <ele>1865.09</ele>
        <time>2012-01-03T10:51:33Z</time>
      </trkpt>
      <trkpt lat="46.10578" lon="6.45757">
        <ele>1864.61</ele>
        <time>2012-01-03T10:51:55Z</time>
      </trkpt>
      <trkpt lat="46.10578" lon="6.45757">
        <ele>1854.04</ele>
        <time>2012-01-03T10:52:01Z</time>
      </trkpt>
      <trkpt lat="46.10579" lon="6.45758">
        <ele>1866.06</ele>
        <time>2012-01-03T10:52:02Z</time>
      </trkpt>
      <trkpt lat="46.10579" lon="6.45758">
        <ele>1876.63</ele>
        <time>2012-01-03T10:52:03Z</time>
      </trkpt>
      <trkpt lat="46.10578" lon="6.45758">
        <ele>1866.06</ele>
        <time>2012-01-03T10:52:04Z</time>
      </trkpt>
      <trkpt lat="46.10579" lon="6.45758">
        <ele>1866.06</ele>
        <time>2012-01-03T10:52:22Z</time>
      </trkpt>
      <trkpt lat="46.10579" lon="6.45758">
        <ele>1865.09</ele>
        <time>2012-01-03T10:52:48Z</time>
      </trkpt>
      <trkpt lat="46.10579" lon="6.45758">
        <ele>1864.61</ele>
        <time>2012-01-03T10:52:52Z</time>
      </trkpt>
      <trkpt lat="46.10565" lon="6.45766">
        <ele>1862.21</ele>
        <time>2012-01-03T10:52:57Z</time>
      </trkpt>
      <trkpt lat="46.10553" lon="6.45772">
        <ele>1856.44</ele>
        <time>2012-01-03T10:53:00Z</time>
      </trkpt>
      <trkpt lat="46.10534" lon="6.45778">
        <ele>1854.04</ele>
        <time>2012-01-03T10:53:04Z</time>
      </trkpt>
      <trkpt lat="46.10531" lon="6.45781">
        <ele>1850.19</ele>
        <time>2012-01-03T10:53:05Z</time>
      </trkpt>
      <trkpt lat="46.10528" lon="6.45784">
        <ele>1850.19</ele>
        <time>2012-01-03T10:53:06Z</time>
      </trkpt>
      <trkpt lat="46.10524" lon="6.45785">
        <ele>1850.19</ele>
        <time>2012-01-03T10:53:07Z</time>
      </trkpt>
      <trkpt lat="46.10517" lon="6.45782">
        <ele>1842.98</ele>
        <time>2012-01-03T10:53:11Z</time>
      </trkpt>
      <trkpt lat="46.10516" lon="6.45768">
        <ele>1841.54</ele>
        <time>2012-01-03T10:53:16Z</time>
      </trkpt>
      <trkpt lat="46.10511" lon="6.4576">
        <ele>1836.26</ele>
        <time>2012-01-03T10:53:18Z</time>
      </trkpt>
      <trkpt lat="46.10508" lon="6.45757">
        <ele>1833.37</ele>
        <time>2012-01-03T10:53:19Z</time>
      </trkpt>
      <trkpt lat="46.10507" lon="6.45752">
        <ele>1832.89</ele>
        <time>2012-01-03T10:53:20Z</time>
      </trkpt>
      <trkpt lat="46.10505" lon="6.45749">
        <ele>1826.64</ele>
        <time>2012-01-03T10:53:21Z</time>
      </trkpt>
      <trkpt lat="46.10497" lon="6.45738">
        <ele>1820.39</ele>
        <time>2012-01-03T10:53:25Z</time>
      </trkpt>
      <trkpt lat="46.10494" lon="6.45738">
        <ele>1820.39</ele>
        <time>2012-01-03T10:53:26Z</time>
      </trkpt>
      <trkpt lat="46.10492" lon="6.45735">
        <ele>1817.03</ele>
        <time>2012-01-03T10:53:27Z</time>
      </trkpt>
      <trkpt lat="46.1049" lon="6.45732">
        <ele>1817.03</ele>
        <time>2012-01-03T10:53:28Z</time>
      </trkpt>
      <trkpt lat="46.10483" lon="6.45724">
        <ele>1808.86</ele>
        <time>2012-01-03T10:53:30Z</time>
      </trkpt>
      <trkpt lat="46.10475" lon="6.45717">
        <ele>1800.69</ele>
        <time>2012-01-03T10:53:32Z</time>
      </trkpt>
      <trkpt lat="46.1047" lon="6.45715">
        <ele>1805.01</ele>
        <time>2012-01-03T10:53:33Z</time>
      </trkpt>
      <trkpt lat="46.10459" lon="6.45708">
        <ele>1790.59</ele>
        <time>2012-01-03T10:53:36Z</time>
      </trkpt>
      <trkpt lat="46.10455" lon="6.45704">
        <ele>1786.75</ele>
        <time>2012-01-03T10:53:38Z</time>
      </trkpt>
      <trkpt lat="46.10447" lon="6.45694">
        <ele>1778.58</ele>
        <time>2012-01-03T10:53:42Z</time>
      </trkpt>
      <trkpt lat="46.10443" lon="6.45692">
        <ele>1779.54</ele>
        <time>2012-01-03T10:53:43Z</time>
      </trkpt>
      <trkpt lat="46.1044" lon="6.45688">
        <ele>1774.25</ele>
        <time>2012-01-03T10:53:44Z</time>
      </trkpt>
      <trkpt lat="46.10436" lon="6.45676">
        <ele>1767.04</ele>
        <time>2012-01-03T10:53:46Z</time>
      </trkpt>
      <trkpt lat="46.10431" lon="6.45674">
        <ele>1761.75</ele>
        <time>2012-01-03T10:53:47Z</time>
      </trkpt>
      <trkpt lat="46.10427" lon="6.45672">
        <ele>1765.12</ele>
        <time>2012-01-03T10:53:48Z</time>
      </trkpt>
      <trkpt lat="46.10424" lon="6.45668">
        <ele>1757.91</ele>
        <time>2012-01-03T10:53:49Z</time>
      </trkpt>
      <trkpt lat="46.10414" lon="6.45658">
        <ele>1749.74</ele>
        <time>2012-01-03T10:53:51Z</time>
      </trkpt>
      <trkpt lat="46.104" lon="6.45648">
        <ele>1741.08</ele>
        <time>2012-01-03T10:53:54Z</time>
      </trkpt>
      <trkpt lat="46.10394" lon="6.45643">
        <ele>1736.76</ele>
        <time>2012-01-03T10:53:55Z</time>
      </trkpt>
      <trkpt lat="46.10388" lon="6.4564">
        <ele>1732.91</ele>
        <time>2012-01-03T10:53:56Z</time>
      </trkpt>
      <trkpt lat="46.10374" lon="6.45632">
        <ele>1720.42</ele>
        <time>2012-01-03T10:53:59Z</time>
      </trkpt>
      <trkpt lat="46.10375" lon="6.45625">
        <ele>1717.05</ele>
        <time>2012-01-03T10:54:00Z</time>
      </trkpt>
      <trkpt lat="46.10372" lon="6.45612">
        <ele>1713.21</ele>
        <time>2012-01-03T10:54:02Z</time>
      </trkpt>
      <trkpt lat="46.10368" lon="6.4561">
        <ele>1707.92</ele>
        <time>2012-01-03T10:54:03Z</time>
      </trkpt>
      <trkpt lat="46.10357" lon="6.45611">
        <ele>1703.59</ele>
        <time>2012-01-03T10:54:05Z</time>
      </trkpt>
      <trkpt lat="46.10354" lon="6.45609">
        <ele>1705.52</ele>
        <time>2012-01-03T10:54:06Z</time>
      </trkpt>
      <trkpt lat="46.10349" lon="6.45601">
        <ele>1698.31</ele>
        <time>2012-01-03T10:54:08Z</time>
      </trkpt>
      <trkpt lat="46.10344" lon="6.45598">
        <ele>1698.31</ele>
        <time>2012-01-03T10:54:09Z</time>
      </trkpt>
      <trkpt lat="46.1034" lon="6.45594">
        <ele>1694.46</ele>
        <time>2012-01-03T10:54:10Z</time>
      </trkpt>
      <trkpt lat="46.10335" lon="6.45583">
        <ele>1686.29</ele>
        <time>2012-01-03T10:54:12Z</time>
      </trkpt>
      <trkpt lat="46.10325" lon="6.45577">
        <ele>1683.41</ele>
        <time>2012-01-03T10:54:14Z</time>
      </trkpt>
      <trkpt lat="46.10323" lon="6.45571">
        <ele>1678.12</ele>
        <time>2012-01-03T10:54:15Z</time>
      </trkpt>
      <trkpt lat="46.10314" lon="6.45561">
        <ele>1668.99</ele>
        <time>2012-01-03T10:54:17Z</time>
      </trkpt>
      <trkpt lat="46.10309" lon="6.45557">
        <ele>1670.43</ele>
        <time>2012-01-03T10:54:18Z</time>
      </trkpt>
      <trkpt lat="46.10305" lon="6.45551">
        <ele>1665.62</ele>
        <time>2012-01-03T10:54:19Z</time>
      </trkpt>
      <trkpt lat="46.10299" lon="6.45548">
        <ele>1659.85</ele>
        <time>2012-01-03T10:54:20Z</time>
      </trkpt>
      <trkpt lat="46.10294" lon="6.45549">
        <ele>1662.26</ele>
        <time>2012-01-03T10:54:21Z</time>
      </trkpt>
      <trkpt lat="46.10289" lon="6.4555">
        <ele>1658.89</ele>
        <time>2012-01-03T10:54:22Z</time>
      </trkpt>
      <trkpt lat="46.10286" lon="6.45547">
        <ele>1655.05</ele>
        <time>2012-01-03T10:54:23Z</time>
      </trkpt>
      <trkpt lat="46.10283" lon="6.45541">
        <ele>1651.68</ele>
        <time>2012-01-03T10:54:24Z</time>
      </trkpt>
      <trkpt lat="46.10277" lon="6.45538">
        <ele>1646.88</ele>
        <time>2012-01-03T10:54:25Z</time>
      </trkpt>
      <trkpt lat="46.10272" lon="6.45535">
        <ele>1646.88</ele>
        <time>2012-01-03T10:54:26Z</time>
      </trkpt>
      <trkpt lat="46.10268" lon="6.45524">
        <ele>1641.11</ele>
        <time>2012-01-03T10:54:28Z</time>
      </trkpt>
      <trkpt lat="46.10267" lon="6.45519">
        <ele>1640.15</ele>
        <time>2012-01-03T10:54:30Z</time>
      </trkpt>
      <trkpt lat="46.10266" lon="6.45523">
        <ele>1626.21</ele>
        <time>2012-01-03T10:54:35Z</time>
      </trkpt>
      <trkpt lat="46.10268" lon="6.45525">
        <ele>1635.34</ele>
        <time>2012-01-03T10:54:37Z</time>
      </trkpt>
      <trkpt lat="46.10268" lon="6.45525">
        <ele>1639.19</ele>
        <time>2012-01-03T10:54:38Z</time>
      </trkpt>
      <trkpt lat="46.10266" lon="6.45527">
        <ele>1638.7</ele>
        <time>2012-01-03T10:54:41Z</time>
      </trkpt>
      <trkpt lat="46.1026" lon="6.45515">
        <ele>1637.74</ele>
        <time>2012-01-03T10:54:45Z</time>
      </trkpt>
      <trkpt lat="46.10259" lon="6.45509">
        <ele>1632.46</ele>
        <time>2012-01-03T10:54:46Z</time>
      </trkpt>
      <trkpt lat="46.10254" lon="6.455">
        <ele>1629.09</ele>
        <time>2012-01-03T10:54:48Z</time>
      </trkpt>
      <trkpt lat="46.10249" lon="6.45501">
        <ele>1625.73</ele>
        <time>2012-01-03T10:54:49Z</time>
      </trkpt>
      <trkpt lat="46.10242" lon="6.45496">
        <ele>1620.44</ele>
        <time>2012-01-03T10:54:51Z</time>
      </trkpt>
      <trkpt lat="46.10239" lon="6.4549">
        <ele>1616.11</ele>
        <time>2012-01-03T10:54:52Z</time>
      </trkpt>
      <trkpt lat="46.10234" lon="6.45487">
        <ele>1616.11</ele>
        <time>2012-01-03T10:54:53Z</time>
      </trkpt>
      <trkpt lat="46.10228" lon="6.45486">
        <ele>1610.83</ele>
        <time>2012-01-03T10:54:54Z</time>
      </trkpt>
      <trkpt lat="46.10221" lon="6.45481">
        <ele>1605.54</ele>
        <time>2012-01-03T10:54:56Z</time>
      </trkpt>
      <trkpt lat="46.10216" lon="6.45472">
        <ele>1600.73</ele>
        <time>2012-01-03T10:54:58Z</time>
      </trkpt>
      <trkpt lat="46.10207" lon="6.45466">
        <ele>1595.93</ele>
        <time>2012-01-03T10:55:00Z</time>
      </trkpt>
      <trkpt lat="46.10205" lon="6.45459">
        <ele>1590.64</ele>
        <time>2012-01-03T10:55:01Z</time>
      </trkpt>
      <trkpt lat="46.10199" lon="6.45448">
        <ele>1587.27</ele>
        <time>2012-01-03T10:55:03Z</time>
      </trkpt>
      <trkpt lat="46.10194" lon="6.45448">
        <ele>1583.43</ele>
        <time>2012-01-03T10:55:04Z</time>
      </trkpt>
      <trkpt lat="46.10186" lon="6.45443">
        <ele>1578.62</ele>
        <time>2012-01-03T10:55:06Z</time>
      </trkpt>
      <trkpt lat="46.10183" lon="6.45432">
        <ele>1575.26</ele>
        <time>2012-01-03T10:55:08Z</time>
      </trkpt>
      <trkpt lat="46.10177" lon="6.45423">
        <ele>1571.41</ele>
        <time>2012-01-03T10:55:10Z</time>
      </trkpt>
      <trkpt lat="46.10172" lon="6.45417">
        <ele>1565.64</ele>
        <time>2012-01-03T10:55:12Z</time>
      </trkpt>
      <trkpt lat="46.10168" lon="6.45404">
        <ele>1561.32</ele>
        <time>2012-01-03T10:55:14Z</time>
      </trkpt>
      <trkpt lat="46.10163" lon="6.45401">
        <ele>1556.99</ele>
        <time>2012-01-03T10:55:15Z</time>
      </trkpt>
      <trkpt lat="46.10159" lon="6.45403">
        <ele>1556.99</ele>
        <time>2012-01-03T10:55:16Z</time>
      </trkpt>
      <trkpt lat="46.10143" lon="6.4541">
        <ele>1549.3</ele>
        <time>2012-01-03T10:55:20Z</time>
      </trkpt>
      <trkpt lat="46.10139" lon="6.45411">
        <ele>1548.82</ele>
        <time>2012-01-03T10:55:21Z</time>
      </trkpt>
      <trkpt lat="46.10131" lon="6.45413">
        <ele>1544.98</ele>
        <time>2012-01-03T10:55:23Z</time>
      </trkpt>
      <trkpt lat="46.10126" lon="6.45414">
        <ele>1523.35</ele>
        <time>2012-01-03T10:55:25Z</time>
      </trkpt>
      <trkpt lat="46.10125" lon="6.45414">
        <ele>1552.19</ele>
        <time>2012-01-03T10:55:26Z</time>
      </trkpt>
      <trkpt lat="46.10117" lon="6.45412">
        <ele>1538.25</ele>
        <time>2012-01-03T10:55:29Z</time>
      </trkpt>
      <trkpt lat="46.10107" lon="6.45412">
        <ele>1534.88</ele>
        <time>2012-01-03T10:55:31Z</time>
      </trkpt>
      <trkpt lat="46.101" lon="6.45414">
        <ele>1536.8</ele>
        <time>2012-01-03T10:55:39Z</time>
      </trkpt>
      <trkpt lat="46.101" lon="6.45414">
        <ele>1538.25</ele>
        <time>2012-01-03T10:55:42Z</time>
      </trkpt>
      <trkpt lat="46.101" lon="6.45414">
        <ele>1538.25</ele>
        <time>2012-01-03T10:56:08Z</time>
      </trkpt>
      <trkpt lat="46.101" lon="6.45414">
        <ele>1538.73</ele>
        <time>2012-01-03T10:56:24Z</time>
      </trkpt>
      <trkpt lat="46.101" lon="6.45415">
        <ele>1538.25</ele>
        <time>2012-01-03T10:56:57Z</time>
      </trkpt>
      <trkpt lat="46.101" lon="6.45415">
        <ele>1537.29</ele>
        <time>2012-01-03T10:57:18Z</time>
      </trkpt>
      <trkpt lat="46.10096" lon="6.454">
        <ele>1532.96</ele>
        <time>2012-01-03T10:57:22Z</time>
      </trkpt>
      <trkpt lat="46.10096" lon="6.45395">
        <ele>1532.96</ele>
        <time>2012-01-03T10:57:23Z</time>
      </trkpt>
      <trkpt lat="46.10096" lon="6.45386">
        <ele>1531.04</ele>
        <time>2012-01-03T10:57:25Z</time>
      </trkpt>
      <trkpt lat="46.10098" lon="6.45376">
        <ele>1528.15</ele>
        <time>2012-01-03T10:57:27Z</time>
      </trkpt>
      <trkpt lat="46.101" lon="6.45367">
        <ele>1524.31</ele>
        <time>2012-01-03T10:57:29Z</time>
      </trkpt>
      <trkpt lat="46.10103" lon="6.4536">
        <ele>1522.39</ele>
        <time>2012-01-03T10:57:31Z</time>
      </trkpt>
      <trkpt lat="46.10111" lon="6.45348">
        <ele>1517.1</ele>
        <time>2012-01-03T10:57:34Z</time>
      </trkpt>
      <trkpt lat="46.10116" lon="6.4533">
        <ele>1512.77</ele>
        <time>2012-01-03T10:57:37Z</time>
      </trkpt>
      <trkpt lat="46.1011" lon="6.45317">
        <ele>1507.48</ele>
        <time>2012-01-03T10:57:40Z</time>
      </trkpt>
      <trkpt lat="46.10111" lon="6.45311">
        <ele>1506.52</ele>
        <time>2012-01-03T10:57:42Z</time>
      </trkpt>
      <trkpt lat="46.10112" lon="6.45308">
        <ele>1505.08</ele>
        <time>2012-01-03T10:57:44Z</time>
      </trkpt>
      <trkpt lat="46.10111" lon="6.45308">
        <ele>1503.64</ele>
        <time>2012-01-03T10:57:50Z</time>
      </trkpt>
      <trkpt lat="46.10111" lon="6.45299">
        <ele>1500.76</ele>
        <time>2012-01-03T10:57:53Z</time>
      </trkpt>
      <trkpt lat="46.10113" lon="6.45294">
        <ele>1499.79</ele>
        <time>2012-01-03T10:57:54Z</time>
      </trkpt>
      <trkpt lat="46.10116" lon="6.45282">
        <ele>1497.39</ele>
        <time>2012-01-03T10:58:03Z</time>
      </trkpt>
      <trkpt lat="46.10112" lon="6.45279">
        <ele>1495.95</ele>
        <time>2012-01-03T10:58:06Z</time>
      </trkpt>
      <trkpt lat="46.10108" lon="6.45278">
        <ele>1494.03</ele>
        <time>2012-01-03T10:58:07Z</time>
      </trkpt>
      <trkpt lat="46.10101" lon="6.45268">
        <ele>1492.1</ele>
        <time>2012-01-03T10:58:12Z</time>
      </trkpt>
      <trkpt lat="46.101" lon="6.45251">
        <ele>1487.3</ele>
        <time>2012-01-03T10:58:17Z</time>
      </trkpt>
      <trkpt lat="46.10098" lon="6.45248">
        <ele>1487.78</ele>
        <time>2012-01-03T10:58:18Z</time>
      </trkpt>
      <trkpt lat="46.1009" lon="6.45233">
        <ele>1484.41</ele>
        <time>2012-01-03T10:58:22Z</time>
      </trkpt>
      <trkpt lat="46.10082" lon="6.45219">
        <ele>1482.97</ele>
        <time>2012-01-03T10:58:26Z</time>
      </trkpt>
      <trkpt lat="46.10076" lon="6.45205">
        <ele>1479.61</ele>
        <time>2012-01-03T10:58:32Z</time>
      </trkpt>
      <trkpt lat="46.10075" lon="6.45204">
        <ele>1479.61</ele>
        <time>2012-01-03T10:58:38Z</time>
      </trkpt>
      <trkpt lat="46.10077" lon="6.45203">
        <ele>1480.09</ele>
        <time>2012-01-03T10:58:40Z</time>
      </trkpt>
      <trkpt lat="46.10083" lon="6.45203">
        <ele>1476.72</ele>
        <time>2012-01-03T10:58:42Z</time>
      </trkpt>
      <trkpt lat="46.10099" lon="6.45206">
        <ele>1470.47</ele>
        <time>2012-01-03T10:58:46Z</time>
      </trkpt>
      <trkpt lat="46.10099" lon="6.45194">
        <ele>1468.55</ele>
        <time>2012-01-03T10:58:50Z</time>
      </trkpt>
      <trkpt lat="46.10098" lon="6.45192">
        <ele>1468.55</ele>
        <time>2012-01-03T10:58:52Z</time>
      </trkpt>
      <trkpt lat="46.10091" lon="6.45183">
        <ele>1464.71</ele>
        <time>2012-01-03T10:58:56Z</time>
      </trkpt>
      <trkpt lat="46.10086" lon="6.45172">
        <ele>1463.26</ele>
        <time>2012-01-03T10:58:59Z</time>
      </trkpt>
      <trkpt lat="46.10078" lon="6.45154">
        <ele>1460.38</ele>
        <time>2012-01-03T10:59:03Z</time>
      </trkpt>
      <trkpt lat="46.1007" lon="6.45141">
        <ele>1457.98</ele>
        <time>2012-01-03T10:59:06Z</time>
      </trkpt>
      <trkpt lat="46.10065" lon="6.45133">
        <ele>1456.05</ele>
        <time>2012-01-03T10:59:08Z</time>
      </trkpt>
      <trkpt lat="46.10054" lon="6.45117">
        <ele>1452.21</ele>
        <time>2012-01-03T10:59:11Z</time>
      </trkpt>
      <trkpt lat="46.10044" lon="6.45101">
        <ele>1446.44</ele>
        <time>2012-01-03T10:59:14Z</time>
      </trkpt>
      <trkpt lat="46.10039" lon="6.4509">
        <ele>1447.4</ele>
        <time>2012-01-03T10:59:19Z</time>
      </trkpt>
      <trkpt lat="46.10033" lon="6.45081">
        <ele>1445</ele>
        <time>2012-01-03T10:59:23Z</time>
      </trkpt>
      <trkpt lat="46.10027" lon="6.45074">
        <ele>1441.63</ele>
        <time>2012-01-03T10:59:26Z</time>
      </trkpt>
      <trkpt lat="46.10016" lon="6.45061">
        <ele>1437.31</ele>
        <time>2012-01-03T10:59:31Z</time>
      </trkpt>
      <trkpt lat="46.10009" lon="6.45048">
        <ele>1434.42</ele>
        <time>2012-01-03T10:59:34Z</time>
      </trkpt>
      <trkpt lat="46.10004" lon="6.45041">
        <ele>1432.98</ele>
        <time>2012-01-03T10:59:36Z</time>
      </trkpt>
      <trkpt lat="46.09997" lon="6.4503">
        <ele>1431.06</ele>
        <time>2012-01-03T10:59:40Z</time>
      </trkpt>
      <trkpt lat="46.09991" lon="6.45024">
        <ele>1429.62</ele>
        <time>2012-01-03T10:59:43Z</time>
      </trkpt>
      <trkpt lat="46.09986" lon="6.4502">
        <ele>1428.18</ele>
        <time>2012-01-03T10:59:45Z</time>
      </trkpt>
      <trkpt lat="46.09975" lon="6.4501">
        <ele>1425.29</ele>
        <time>2012-01-03T10:59:50Z</time>
      </trkpt>
      <trkpt lat="46.09969" lon="6.45005">
        <ele>1424.81</ele>
        <time>2012-01-03T10:59:53Z</time>
      </trkpt>
      <trkpt lat="46.09958" lon="6.4498">
        <ele>1420.97</ele>
        <time>2012-01-03T10:59:59Z</time>
      </trkpt>
      <trkpt lat="46.09956" lon="6.44978">
        <ele>1422.41</ele>
        <time>2012-01-03T11:00:03Z</time>
      </trkpt>
      <trkpt lat="46.09954" lon="6.44977">
        <ele>1421.45</ele>
        <time>2012-01-03T11:00:19Z</time>
      </trkpt>
      <trkpt lat="46.09959" lon="6.44972">
        <ele>1420.49</ele>
        <time>2012-01-03T11:00:31Z</time>
      </trkpt>
      <trkpt lat="46.09967" lon="6.44977">
        <ele>1418.56</ele>
        <time>2012-01-03T11:00:35Z</time>
      </trkpt>
      <trkpt lat="46.09978" lon="6.44981">
        <ele>1415.68</ele>
        <time>2012-01-03T11:00:38Z</time>
      </trkpt>
      <trkpt lat="46.10007" lon="6.44983">
        <ele>1412.79</ele>
        <time>2012-01-03T11:00:46Z</time>
      </trkpt>
      <trkpt lat="46.10018" lon="6.44985">
        <ele>1411.35</ele>
        <time>2012-01-03T11:00:50Z</time>
      </trkpt>
      <trkpt lat="46.10031" lon="6.44991">
        <ele>1408.95</ele>
        <time>2012-01-03T11:00:54Z</time>
      </trkpt>
      <trkpt lat="46.10044" lon="6.44995">
        <ele>1406.55</ele>
        <time>2012-01-03T11:00:58Z</time>
      </trkpt>
      <trkpt lat="46.10052" lon="6.44997">
        <ele>1405.1</ele>
        <time>2012-01-03T11:01:00Z</time>
      </trkpt>
      <trkpt lat="46.10056" lon="6.44997">
        <ele>1404.62</ele>
        <time>2012-01-03T11:01:01Z</time>
      </trkpt>
      <trkpt lat="46.10077" lon="6.45005">
        <ele>1401.26</ele>
        <time>2012-01-03T11:01:05Z</time>
      </trkpt>
      <trkpt lat="46.10092" lon="6.45006">
        <ele>1400.78</ele>
        <time>2012-01-03T11:01:12Z</time>
      </trkpt>
      <trkpt lat="46.10092" lon="6.44995">
        <ele>1400.78</ele>
        <time>2012-01-03T11:01:19Z</time>
      </trkpt>
      <trkpt lat="46.10088" lon="6.44975">
        <ele>1397.41</ele>
        <time>2012-01-03T11:01:24Z</time>
      </trkpt>
      <trkpt lat="46.10085" lon="6.44955">
        <ele>1395.97</ele>
        <time>2012-01-03T11:01:28Z</time>
      </trkpt>
      <trkpt lat="46.10084" lon="6.44936">
        <ele>1390.2</ele>
        <time>2012-01-03T11:01:31Z</time>
      </trkpt>
      <trkpt lat="46.10083" lon="6.4493">
        <ele>1391.65</ele>
        <time>2012-01-03T11:01:32Z</time>
      </trkpt>
      <trkpt lat="46.10082" lon="6.44917">
        <ele>1388.76</ele>
        <time>2012-01-03T11:01:34Z</time>
      </trkpt>
      <trkpt lat="46.10081" lon="6.4491">
        <ele>1388.28</ele>
        <time>2012-01-03T11:01:35Z</time>
      </trkpt>
      <trkpt lat="46.1008" lon="6.44896">
        <ele>1386.84</ele>
        <time>2012-01-03T11:01:37Z</time>
      </trkpt>
      <trkpt lat="46.10079" lon="6.44872">
        <ele>1382.51</ele>
        <time>2012-01-03T11:01:40Z</time>
      </trkpt>
      <trkpt lat="46.10078" lon="6.44849">
        <ele>1380.59</ele>
        <time>2012-01-03T11:01:43Z</time>
      </trkpt>
      <trkpt lat="46.10077" lon="6.44827">
        <ele>1377.71</ele>
        <time>2012-01-03T11:01:46Z</time>
      </trkpt>
      <trkpt lat="46.10077" lon="6.4482">
        <ele>1377.71</ele>
        <time>2012-01-03T11:01:47Z</time>
      </trkpt>
      <trkpt lat="46.10076" lon="6.44806">
        <ele>1375.78</ele>
        <time>2012-01-03T11:01:49Z</time>
      </trkpt>
      <trkpt lat="46.10076" lon="6.44791">
        <ele>1372.9</ele>
        <time>2012-01-03T11:01:52Z</time>
      </trkpt>
      <trkpt lat="46.10077" lon="6.44771">
        <ele>1370.98</ele>
        <time>2012-01-03T11:01:55Z</time>
      </trkpt>
      <trkpt lat="46.10082" lon="6.44741">
        <ele>1367.61</ele>
        <time>2012-01-03T11:02:00Z</time>
      </trkpt>
      <trkpt lat="46.10086" lon="6.44725">
        <ele>1363.29</ele>
        <time>2012-01-03T11:02:03Z</time>
      </trkpt>
      <trkpt lat="46.10085" lon="6.44707">
        <ele>1358.96</ele>
        <time>2012-01-03T11:02:06Z</time>
      </trkpt>
      <trkpt lat="46.10084" lon="6.44702">
        <ele>1360.88</ele>
        <time>2012-01-03T11:02:07Z</time>
      </trkpt>
      <trkpt lat="46.10081" lon="6.44687">
        <ele>1357.04</ele>
        <time>2012-01-03T11:02:10Z</time>
      </trkpt>
      <trkpt lat="46.1008" lon="6.44682">
        <ele>1357.04</ele>
        <time>2012-01-03T11:02:11Z</time>
      </trkpt>
      <trkpt lat="46.10078" lon="6.4466">
        <ele>1355.12</ele>
        <time>2012-01-03T11:02:15Z</time>
      </trkpt>
      <trkpt lat="46.10079" lon="6.44639">
        <ele>1352.71</ele>
        <time>2012-01-03T11:02:18Z</time>
      </trkpt>
      <trkpt lat="46.10079" lon="6.4462">
        <ele>1350.31</ele>
        <time>2012-01-03T11:02:21Z</time>
      </trkpt>
      <trkpt lat="46.10078" lon="6.44599">
        <ele>1349.35</ele>
        <time>2012-01-03T11:02:24Z</time>
      </trkpt>
      <trkpt lat="46.10074" lon="6.44572">
        <ele>1345.5</ele>
        <time>2012-01-03T11:02:28Z</time>
      </trkpt>
      <trkpt lat="46.10073" lon="6.4456">
        <ele>1344.06</ele>
        <time>2012-01-03T11:02:30Z</time>
      </trkpt>
      <trkpt lat="46.10071" lon="6.44549">
        <ele>1341.66</ele>
        <time>2012-01-03T11:02:32Z</time>
      </trkpt>
      <trkpt lat="46.10068" lon="6.44525">
        <ele>1339.25</ele>
        <time>2012-01-03T11:02:36Z</time>
      </trkpt>
      <trkpt lat="46.10065" lon="6.44506">
        <ele>1336.85</ele>
        <time>2012-01-03T11:02:39Z</time>
      </trkpt>
      <trkpt lat="46.10063" lon="6.44487">
        <ele>1335.41</ele>
        <time>2012-01-03T11:02:42Z</time>
      </trkpt>
      <trkpt lat="46.10062" lon="6.44472">
        <ele>1333.97</ele>
        <time>2012-01-03T11:02:44Z</time>
      </trkpt>
      <trkpt lat="46.10061" lon="6.44459">
        <ele>1332.04</ele>
        <time>2012-01-03T11:02:46Z</time>
      </trkpt>
      <trkpt lat="46.10062" lon="6.44424">
        <ele>1329.64</ele>
        <time>2012-01-03T11:02:51Z</time>
      </trkpt>
      <trkpt lat="46.10064" lon="6.44412">
        <ele>1328.2</ele>
        <time>2012-01-03T11:02:53Z</time>
      </trkpt>
      <trkpt lat="46.10064" lon="6.4439">
        <ele>1324.35</ele>
        <time>2012-01-03T11:02:56Z</time>
      </trkpt>
      <trkpt lat="46.10063" lon="6.44381">
        <ele>1324.83</ele>
        <time>2012-01-03T11:02:57Z</time>
      </trkpt>
      <trkpt lat="46.10065" lon="6.44341">
        <ele>1320.51</ele>
        <time>2012-01-03T11:03:02Z</time>
      </trkpt>
      <trkpt lat="46.10067" lon="6.44313">
        <ele>1315.7</ele>
        <time>2012-01-03T11:03:06Z</time>
      </trkpt>
      <trkpt lat="46.10067" lon="6.44307">
        <ele>1315.22</ele>
        <time>2012-01-03T11:03:07Z</time>
      </trkpt>
      <trkpt lat="46.10068" lon="6.44285">
        <ele>1313.78</ele>
        <time>2012-01-03T11:03:11Z</time>
      </trkpt>
      <trkpt lat="46.10067" lon="6.44247">
        <ele>1311.38</ele>
        <time>2012-01-03T11:03:26Z</time>
      </trkpt>
      <trkpt lat="46.10067" lon="6.44234">
        <ele>1309.93</ele>
        <time>2012-01-03T11:03:34Z</time>
      </trkpt>
      <trkpt lat="46.10067" lon="6.44224">
        <ele>1308.97</ele>
        <time>2012-01-03T11:03:36Z</time>
      </trkpt>
      <trkpt lat="46.10069" lon="6.44199">
        <ele>1307.05</ele>
        <time>2012-01-03T11:03:42Z</time>
      </trkpt>
      <trkpt lat="46.1007" lon="6.44178">
        <ele>1304.65</ele>
        <time>2012-01-03T11:03:46Z</time>
      </trkpt>
      <trkpt lat="46.10073" lon="6.4416">
        <ele>1302.72</ele>
        <time>2012-01-03T11:03:50Z</time>
      </trkpt>
      <trkpt lat="46.10085" lon="6.44123">
        <ele>1298.4</ele>
        <time>2012-01-03T11:03:59Z</time>
      </trkpt>
      <trkpt lat="46.10087" lon="6.44119">
        <ele>1298.4</ele>
        <time>2012-01-03T11:04:00Z</time>
      </trkpt>
      <trkpt lat="46.10098" lon="6.44106">
        <ele>1295.99</ele>
        <time>2012-01-03T11:04:06Z</time>
      </trkpt>
      <trkpt lat="46.10107" lon="6.441">
        <ele>1293.59</ele>
        <time>2012-01-03T11:04:09Z</time>
      </trkpt>
      <trkpt lat="46.1012" lon="6.4409">
        <ele>1290.23</ele>
        <time>2012-01-03T11:04:14Z</time>
      </trkpt>
      <trkpt lat="46.10138" lon="6.44079">
        <ele>1287.34</ele>
        <time>2012-01-03T11:04:22Z</time>
      </trkpt>
      <trkpt lat="46.10151" lon="6.4408">
        <ele>1284.46</ele>
        <time>2012-01-03T11:04:27Z</time>
      </trkpt>
      <trkpt lat="46.10163" lon="6.44083">
        <ele>1281.09</ele>
        <time>2012-01-03T11:04:32Z</time>
      </trkpt>
      <trkpt lat="46.10165" lon="6.44083">
        <ele>1281.09</ele>
        <time>2012-01-03T11:04:33Z</time>
      </trkpt>
      <trkpt lat="46.10181" lon="6.44094">
        <ele>1277.25</ele>
        <time>2012-01-03T11:04:38Z</time>
      </trkpt>
      <trkpt lat="46.10184" lon="6.44097">
        <ele>1277.25</ele>
        <time>2012-01-03T11:04:39Z</time>
      </trkpt>
      <trkpt lat="46.10194" lon="6.44101">
        <ele>1275.33</ele>
        <time>2012-01-03T11:04:42Z</time>
      </trkpt>
      <trkpt lat="46.10211" lon="6.44103">
        <ele>1272.92</ele>
        <time>2012-01-03T11:04:46Z</time>
      </trkpt>
      <trkpt lat="46.10219" lon="6.44103">
        <ele>1271.48</ele>
        <time>2012-01-03T11:04:48Z</time>
      </trkpt>
      <trkpt lat="46.10236" lon="6.44101">
        <ele>1269.56</ele>
        <time>2012-01-03T11:04:51Z</time>
      </trkpt>
      <trkpt lat="46.10251" lon="6.44099">
        <ele>1267.16</ele>
        <time>2012-01-03T11:04:54Z</time>
      </trkpt>
      <trkpt lat="46.10295" lon="6.44089">
        <ele>1264.27</ele>
        <time>2012-01-03T11:05:03Z</time>
      </trkpt>
      <trkpt lat="46.10316" lon="6.44085">
        <ele>1260.91</ele>
        <time>2012-01-03T11:05:11Z</time>
      </trkpt>
      <trkpt lat="46.1033" lon="6.44077">
        <ele>1258.02</ele>
        <time>2012-01-03T11:05:19Z</time>
      </trkpt>
      <trkpt lat="46.10339" lon="6.44069">
        <ele>1257.54</ele>
        <time>2012-01-03T11:05:24Z</time>
      </trkpt>
      <trkpt lat="46.10341" lon="6.44067">
        <ele>1256.58</ele>
        <time>2012-01-03T11:05:25Z</time>
      </trkpt>
      <trkpt lat="46.1035" lon="6.44047">
        <ele>1255.14</ele>
        <time>2012-01-03T11:05:29Z</time>
      </trkpt>
      <trkpt lat="46.1036" lon="6.44031">
        <ele>1251.29</ele>
        <time>2012-01-03T11:05:35Z</time>
      </trkpt>
      <trkpt lat="46.10361" lon="6.4403">
        <ele>1251.29</ele>
        <time>2012-01-03T11:05:36Z</time>
      </trkpt>
      <trkpt lat="46.10366" lon="6.44033">
        <ele>1248.89</ele>
        <time>2012-01-03T11:05:39Z</time>
      </trkpt>
      <trkpt lat="46.10375" lon="6.44033">
        <ele>1249.85</ele>
        <time>2012-01-03T11:05:41Z</time>
      </trkpt>
      <trkpt lat="46.10377" lon="6.44028">
        <ele>1248.41</ele>
        <time>2012-01-03T11:05:43Z</time>
      </trkpt>
      <trkpt lat="46.10369" lon="6.44014">
        <ele>1246.97</ele>
        <time>2012-01-03T11:05:50Z</time>
      </trkpt>
      <trkpt lat="46.10366" lon="6.44014">
        <ele>1246.97</ele>
        <time>2012-01-03T11:05:52Z</time>
      </trkpt>
      <trkpt lat="46.10348" lon="6.44009">
        <ele>1244.56</ele>
        <time>2012-01-03T11:05:59Z</time>
      </trkpt>
      <trkpt lat="46.10344" lon="6.44009">
        <ele>1243.6</ele>
        <time>2012-01-03T11:06:00Z</time>
      </trkpt>
      <trkpt lat="46.10338" lon="6.44016">
        <ele>1243.12</ele>
        <time>2012-01-03T11:06:02Z</time>
      </trkpt>
      <trkpt lat="46.10326" lon="6.44021">
        <ele>1239.76</ele>
        <time>2012-01-03T11:06:05Z</time>
      </trkpt>
      <trkpt lat="46.10318" lon="6.44022">
        <ele>1239.28</ele>
        <time>2012-01-03T11:06:07Z</time>
      </trkpt>
      <trkpt lat="46.10305" lon="6.44021">
        <ele>1237.83</ele>
        <time>2012-01-03T11:06:10Z</time>
      </trkpt>
      <trkpt lat="46.10292" lon="6.4402">
        <ele>1235.43</ele>
        <time>2012-01-03T11:06:13Z</time>
      </trkpt>
      <trkpt lat="46.10275" lon="6.44009">
        <ele>1233.99</ele>
        <time>2012-01-03T11:06:18Z</time>
      </trkpt>
      <trkpt lat="46.10264" lon="6.44">
        <ele>1233.51</ele>
        <time>2012-01-03T11:06:28Z</time>
      </trkpt>
      <trkpt lat="46.10254" lon="6.43996">
        <ele>1231.59</ele>
        <time>2012-01-03T11:06:43Z</time>
      </trkpt>
      <trkpt lat="46.10252" lon="6.43994">
        <ele>1228.22</ele>
        <time>2012-01-03T11:06:46Z</time>
      </trkpt>
      <trkpt lat="46.10252" lon="6.43994">
        <ele>1233.51</ele>
        <time>2012-01-03T11:06:47Z</time>
      </trkpt>
      <trkpt lat="46.1025" lon="6.43995">
        <ele>1230.62</ele>
        <time>2012-01-03T11:06:59Z</time>
      </trkpt>
      <trkpt lat="46.10249" lon="6.43995">
        <ele>1230.62</ele>
        <time>2012-01-03T11:07:00Z</time>
      </trkpt>
      <trkpt lat="46.10238" lon="6.43989">
        <ele>1229.66</ele>
        <time>2012-01-03T11:07:05Z</time>
      </trkpt>
      <trkpt lat="46.10225" lon="6.43976">
        <ele>1227.26</ele>
        <time>2012-01-03T11:07:10Z</time>
      </trkpt>
      <trkpt lat="46.10212" lon="6.43963">
        <ele>1225.34</ele>
        <time>2012-01-03T11:07:14Z</time>
      </trkpt>
      <trkpt lat="46.1021" lon="6.43964">
        <ele>1225.82</ele>
        <time>2012-01-03T11:07:22Z</time>
      </trkpt>
      <trkpt lat="46.10213" lon="6.43971">
        <ele>1215.72</ele>
        <time>2012-01-03T11:07:38Z</time>
      </trkpt>
      <trkpt lat="46.10213" lon="6.43971">
        <ele>1223.9</ele>
        <time>2012-01-03T11:07:39Z</time>
      </trkpt>
      <trkpt lat="46.10213" lon="6.43971">
        <ele>1232.55</ele>
        <time>2012-01-03T11:07:40Z</time>
      </trkpt>
      <trkpt lat="46.10213" lon="6.43971">
        <ele>1229.66</ele>
        <time>2012-01-03T11:07:41Z</time>
      </trkpt>
      <trkpt lat="46.10213" lon="6.43971">
        <ele>1226.3</ele>
        <time>2012-01-03T11:07:42Z</time>
      </trkpt>
      <trkpt lat="46.10213" lon="6.43971">
        <ele>1226.3</ele>
        <time>2012-01-03T11:07:43Z</time>
      </trkpt>
      <trkpt lat="46.10212" lon="6.43974">
        <ele>1215.72</ele>
        <time>2012-01-03T11:08:00Z</time>
      </trkpt>
      <trkpt lat="46.10212" lon="6.43974">
        <ele>1215.72</ele>
        <time>2012-01-03T11:08:01Z</time>
      </trkpt>
      <trkpt lat="46.10212" lon="6.43974">
        <ele>1238.8</ele>
        <time>2012-01-03T11:08:02Z</time>
      </trkpt>
      <trkpt lat="46.10212" lon="6.43974">
        <ele>1223.42</ele>
        <time>2012-01-03T11:08:03Z</time>
      </trkpt>
      <trkpt lat="46.10212" lon="6.43974">
        <ele>1217.65</ele>
        <time>2012-01-03T11:08:04Z</time>
      </trkpt>
      <trkpt lat="46.10212" lon="6.43974">
        <ele>1224.86</ele>
        <time>2012-01-03T11:08:05Z</time>
      </trkpt>
      <trkpt lat="46.102" lon="6.4396">
        <ele>1223.42</ele>
        <time>2012-01-03T11:08:17Z</time>
      </trkpt>
      <trkpt lat="46.10193" lon="6.43954">
        <ele>1221.97</ele>
        <time>2012-01-03T11:08:24Z</time>
      </trkpt>
      <trkpt lat="46.10187" lon="6.43946">
        <ele>1221.01</ele>
        <time>2012-01-03T11:08:31Z</time>
      </trkpt>
      <trkpt lat="46.10173" lon="6.43929">
        <ele>1218.13</ele>
        <time>2012-01-03T11:08:46Z</time>
      </trkpt>
      <trkpt lat="46.10161" lon="6.43916">
        <ele>1215.72</ele>
        <time>2012-01-03T11:08:57Z</time>
      </trkpt>
      <trkpt lat="46.10146" lon="6.43909">
        <ele>1213.8</ele>
        <time>2012-01-03T11:09:11Z</time>
      </trkpt>
      <trkpt lat="46.10137" lon="6.43905">
        <ele>1212.84</ele>
        <time>2012-01-03T11:09:19Z</time>
      </trkpt>
      <trkpt lat="46.10126" lon="6.43905">
        <ele>1208.51</ele>
        <time>2012-01-03T11:09:31Z</time>
      </trkpt>
      <trkpt lat="46.10114" lon="6.43904">
        <ele>1208.51</ele>
        <time>2012-01-03T11:09:41Z</time>
      </trkpt>
      <trkpt lat="46.10113" lon="6.43904">
        <ele>1209</ele>
        <time>2012-01-03T11:09:42Z</time>
      </trkpt>
      <trkpt lat="46.1011" lon="6.43903">
        <ele>1208.51</ele>
        <time>2012-01-03T11:09:45Z</time>
      </trkpt>
      <trkpt lat="46.10093" lon="6.43903">
        <ele>1206.11</ele>
        <time>2012-01-03T11:09:57Z</time>
      </trkpt>
      <trkpt lat="46.10075" lon="6.43898">
        <ele>1203.71</ele>
        <time>2012-01-03T11:10:12Z</time>
      </trkpt>
      <trkpt lat="46.1006" lon="6.43899">
        <ele>1200.82</ele>
        <time>2012-01-03T11:10:25Z</time>
      </trkpt>
      <trkpt lat="46.10041" lon="6.43901">
        <ele>1198.9</ele>
        <time>2012-01-03T11:10:40Z</time>
      </trkpt>
      <trkpt lat="46.10025" lon="6.43907">
        <ele>1196.02</ele>
        <time>2012-01-03T11:10:53Z</time>
      </trkpt>
      <trkpt lat="46.10023" lon="6.43908">
        <ele>1196.02</ele>
        <time>2012-01-03T11:10:54Z</time>
      </trkpt>
      <trkpt lat="46.10018" lon="6.43911">
        <ele>1195.54</ele>
        <time>2012-01-03T11:10:59Z</time>
      </trkpt>
      <trkpt lat="46.10015" lon="6.43912">
        <ele>1194.58</ele>
        <time>2012-01-03T11:11:01Z</time>
      </trkpt>
      <trkpt lat="46.10008" lon="6.43917">
        <ele>1193.61</ele>
        <time>2012-01-03T11:11:08Z</time>
      </trkpt>
      <trkpt lat="46.10005" lon="6.43917">
        <ele>1193.61</ele>
        <time>2012-01-03T11:11:10Z</time>
      </trkpt>
      <trkpt lat="46.1" lon="6.43922">
        <ele>1192.17</ele>
        <time>2012-01-03T11:11:16Z</time>
      </trkpt>
      <trkpt lat="46.09995" lon="6.43923">
        <ele>1192.17</ele>
        <time>2012-01-03T11:11:20Z</time>
      </trkpt>
      <trkpt lat="46.0999" lon="6.43926">
        <ele>1191.21</ele>
        <time>2012-01-03T11:11:25Z</time>
      </trkpt>
      <trkpt lat="46.09983" lon="6.43927">
        <ele>1189.77</ele>
        <time>2012-01-03T11:11:28Z</time>
      </trkpt>
      <trkpt lat="46.09967" lon="6.43932">
        <ele>1189.29</ele>
        <time>2012-01-03T11:11:37Z</time>
      </trkpt>
      <trkpt lat="46.09957" lon="6.43938">
        <ele>1187.85</ele>
        <time>2012-01-03T11:11:44Z</time>
      </trkpt>
      <trkpt lat="46.09955" lon="6.4394">
        <ele>1186.88</ele>
        <time>2012-01-03T11:11:46Z</time>
      </trkpt>
      <trkpt lat="46.09939" lon="6.43951">
        <ele>1184</ele>
        <time>2012-01-03T11:12:01Z</time>
      </trkpt>
      <trkpt lat="46.09938" lon="6.43952">
        <ele>1184</ele>
        <time>2012-01-03T11:12:02Z</time>
      </trkpt>
      <trkpt lat="46.09923" lon="6.43967">
        <ele>1181.6</ele>
        <time>2012-01-03T11:12:17Z</time>
      </trkpt>
      <trkpt lat="46.09923" lon="6.43968">
        <ele>1181.6</ele>
        <time>2012-01-03T11:12:18Z</time>
      </trkpt>
      <trkpt lat="46.09912" lon="6.43982">
        <ele>1179.19</ele>
        <time>2012-01-03T11:12:31Z</time>
      </trkpt>
      <trkpt lat="46.09911" lon="6.43984">
        <ele>1178.23</ele>
        <time>2012-01-03T11:12:33Z</time>
      </trkpt>
      <trkpt lat="46.09908" lon="6.43989">
        <ele>1177.75</ele>
        <time>2012-01-03T11:12:37Z</time>
      </trkpt>
      <trkpt lat="46.09905" lon="6.43993">
        <ele>1176.31</ele>
        <time>2012-01-03T11:12:40Z</time>
      </trkpt>
      <trkpt lat="46.09898" lon="6.43996">
        <ele>1174.39</ele>
        <time>2012-01-03T11:12:53Z</time>
      </trkpt>
      <trkpt lat="46.09903" lon="6.4398">
        <ele>1171.02</ele>
        <time>2012-01-03T11:13:04Z</time>
      </trkpt>
      <trkpt lat="46.09908" lon="6.43968">
        <ele>1168.62</ele>
        <time>2012-01-03T11:13:17Z</time>
      </trkpt>
      <trkpt lat="46.09914" lon="6.4395">
        <ele>1166.7</ele>
        <time>2012-01-03T11:13:26Z</time>
      </trkpt>
      <trkpt lat="46.09921" lon="6.43921">
        <ele>1163.81</ele>
        <time>2012-01-03T11:13:39Z</time>
      </trkpt>
      <trkpt lat="46.09922" lon="6.43914">
        <ele>1161.89</ele>
        <time>2012-01-03T11:13:43Z</time>
      </trkpt>
    </trkseg>
  </trk>
</gpx>